<?xml version="1.0" encoding="UTF-8" standalone="no" ?>
<gpx xmlns="http://www.topografix.com/GPX/1/1" xmlns:xsi="http://www.w3.org/2001/XMLSchema-instance" xsi:schemaLocation="http://www.topografix.com/GPX/1/1 http://www.topografix.com/GPX/1/1/gpx.xsd" version="1.1" creator="VisuGPX - https://www.visugpx.com">
  <metadata>
    <name>Les Roques et la Brunerie haute</name>
    <desc><![CDATA[Première avec mon nouveau jouet]]></desc>
  </metadata>
  <trk>
    <name><![CDATA[Move]]></name>
    <trkseg>
      <trkpt lat="43.83992" lon="1.92329">
        <ele>205</ele>
        <time>2013-10-27T07:50:09.190Z</time>
      </trkpt>
      <trkpt lat="43.83988" lon="1.92316">
        <ele>205</ele>
        <time>2013-10-27T07:50:14.800Z</time>
      </trkpt>
      <trkpt lat="43.83981" lon="1.92306">
        <ele>205</ele>
        <time>2013-10-27T07:50:20.800Z</time>
      </trkpt>
      <trkpt lat="43.83974" lon="1.92295">
        <ele>205</ele>
        <time>2013-10-27T07:50:26.570Z</time>
      </trkpt>
      <trkpt lat="43.83969" lon="1.92286">
        <ele>205</ele>
        <time>2013-10-27T07:50:31.700Z</time>
      </trkpt>
      <trkpt lat="43.83965" lon="1.92278">
        <ele>205</ele>
        <time>2013-10-27T07:50:35.700Z</time>
      </trkpt>
      <trkpt lat="43.83961" lon="1.9227">
        <ele>205</ele>
        <time>2013-10-27T07:50:40.700Z</time>
      </trkpt>
      <trkpt lat="43.83957" lon="1.92261">
        <ele>205</ele>
        <time>2013-10-27T07:50:44.700Z</time>
      </trkpt>
      <trkpt lat="43.83953" lon="1.9225">
        <ele>205</ele>
        <time>2013-10-27T07:50:49.700Z</time>
      </trkpt>
      <trkpt lat="43.83948" lon="1.92239">
        <ele>205</ele>
        <time>2013-10-27T07:50:54.700Z</time>
      </trkpt>
      <trkpt lat="43.83943" lon="1.92227">
        <ele>205</ele>
        <time>2013-10-27T07:51:01.700Z</time>
      </trkpt>
      <trkpt lat="43.83939" lon="1.92219">
        <ele>205</ele>
        <time>2013-10-27T07:51:05.700Z</time>
      </trkpt>
      <trkpt lat="43.83935" lon="1.92211">
        <ele>205</ele>
        <time>2013-10-27T07:51:09.700Z</time>
      </trkpt>
      <trkpt lat="43.83929" lon="1.92198">
        <ele>205</ele>
        <time>2013-10-27T07:51:15.700Z</time>
      </trkpt>
      <trkpt lat="43.83922" lon="1.92185">
        <ele>205</ele>
        <time>2013-10-27T07:51:22.700Z</time>
      </trkpt>
      <trkpt lat="43.83916" lon="1.92173">
        <ele>205</ele>
        <time>2013-10-27T07:51:28.700Z</time>
      </trkpt>
      <trkpt lat="43.83911" lon="1.92163">
        <ele>205</ele>
        <time>2013-10-27T07:51:33.620Z</time>
      </trkpt>
      <trkpt lat="43.83905" lon="1.92154">
        <ele>205</ele>
        <time>2013-10-27T07:51:38.700Z</time>
      </trkpt>
      <trkpt lat="43.83901" lon="1.92143">
        <ele>205</ele>
        <time>2013-10-27T07:51:43.900Z</time>
      </trkpt>
      <trkpt lat="43.83896" lon="1.92132">
        <ele>205</ele>
        <time>2013-10-27T07:51:48.700Z</time>
      </trkpt>
      <trkpt lat="43.83891" lon="1.92123">
        <ele>205</ele>
        <time>2013-10-27T07:51:53.700Z</time>
      </trkpt>
      <trkpt lat="43.83886" lon="1.9211">
        <ele>205</ele>
        <time>2013-10-27T07:51:59.700Z</time>
      </trkpt>
      <trkpt lat="43.83881" lon="1.92101">
        <ele>205</ele>
        <time>2013-10-27T07:52:04.700Z</time>
      </trkpt>
      <trkpt lat="43.83875" lon="1.92089">
        <ele>205</ele>
        <time>2013-10-27T07:52:10.700Z</time>
      </trkpt>
      <trkpt lat="43.8387" lon="1.92077">
        <ele>205</ele>
        <time>2013-10-27T07:52:16.700Z</time>
      </trkpt>
      <trkpt lat="43.83865" lon="1.92064">
        <ele>205</ele>
        <time>2013-10-27T07:52:22.700Z</time>
      </trkpt>
      <trkpt lat="43.83859" lon="1.92051">
        <ele>205</ele>
        <time>2013-10-27T07:52:28.700Z</time>
      </trkpt>
      <trkpt lat="43.83854" lon="1.92038">
        <ele>205</ele>
        <time>2013-10-27T07:52:34.700Z</time>
      </trkpt>
      <trkpt lat="43.8385" lon="1.9203">
        <ele>205</ele>
        <time>2013-10-27T07:52:38.700Z</time>
      </trkpt>
      <trkpt lat="43.83846" lon="1.92019">
        <ele>205</ele>
        <time>2013-10-27T07:52:43.900Z</time>
      </trkpt>
      <trkpt lat="43.83842" lon="1.92008">
        <ele>205</ele>
        <time>2013-10-27T07:52:48.700Z</time>
      </trkpt>
      <trkpt lat="43.83837" lon="1.91996">
        <ele>205</ele>
        <time>2013-10-27T07:52:54.790Z</time>
      </trkpt>
      <trkpt lat="43.83831" lon="1.91984">
        <ele>205</ele>
        <time>2013-10-27T07:53:00.800Z</time>
      </trkpt>
      <trkpt lat="43.83826" lon="1.91972">
        <ele>205</ele>
        <time>2013-10-27T07:53:05.800Z</time>
      </trkpt>
      <trkpt lat="43.8382" lon="1.91958">
        <ele>205</ele>
        <time>2013-10-27T07:53:11.800Z</time>
      </trkpt>
      <trkpt lat="43.83816" lon="1.91947">
        <ele>205</ele>
        <time>2013-10-27T07:53:16.750Z</time>
      </trkpt>
      <trkpt lat="43.83813" lon="1.91938">
        <ele>205</ele>
        <time>2013-10-27T07:53:20.800Z</time>
      </trkpt>
      <trkpt lat="43.83809" lon="1.91929">
        <ele>205</ele>
        <time>2013-10-27T07:53:24.800Z</time>
      </trkpt>
      <trkpt lat="43.83806" lon="1.91919">
        <ele>205</ele>
        <time>2013-10-27T07:53:28.800Z</time>
      </trkpt>
      <trkpt lat="43.83802" lon="1.91909">
        <ele>205</ele>
        <time>2013-10-27T07:53:33.750Z</time>
      </trkpt>
      <trkpt lat="43.83797" lon="1.91895">
        <ele>205</ele>
        <time>2013-10-27T07:53:39.800Z</time>
      </trkpt>
      <trkpt lat="43.83794" lon="1.91886">
        <ele>205</ele>
        <time>2013-10-27T07:53:43.800Z</time>
      </trkpt>
      <trkpt lat="43.8379" lon="1.91877">
        <ele>205</ele>
        <time>2013-10-27T07:53:47.760Z</time>
      </trkpt>
      <trkpt lat="43.83786" lon="1.91866">
        <ele>205</ele>
        <time>2013-10-27T07:53:52.800Z</time>
      </trkpt>
      <trkpt lat="43.83781" lon="1.91855">
        <ele>205</ele>
        <time>2013-10-27T07:53:57.900Z</time>
      </trkpt>
      <trkpt lat="43.83777" lon="1.91845">
        <ele>205</ele>
        <time>2013-10-27T07:54:01.700Z</time>
      </trkpt>
      <trkpt lat="43.8377" lon="1.91834">
        <ele>205</ele>
        <time>2013-10-27T07:54:06.700Z</time>
      </trkpt>
      <trkpt lat="43.83767" lon="1.91824">
        <ele>205</ele>
        <time>2013-10-27T07:54:10.700Z</time>
      </trkpt>
      <trkpt lat="43.83763" lon="1.91812">
        <ele>205</ele>
        <time>2013-10-27T07:54:15.700Z</time>
      </trkpt>
      <trkpt lat="43.83757" lon="1.918">
        <ele>205</ele>
        <time>2013-10-27T07:54:21.700Z</time>
      </trkpt>
      <trkpt lat="43.83752" lon="1.91789">
        <ele>205</ele>
        <time>2013-10-27T07:54:26.700Z</time>
      </trkpt>
      <trkpt lat="43.83747" lon="1.91777">
        <ele>205</ele>
        <time>2013-10-27T07:54:31.700Z</time>
      </trkpt>
      <trkpt lat="43.83743" lon="1.91766">
        <ele>205</ele>
        <time>2013-10-27T07:54:36.700Z</time>
      </trkpt>
      <trkpt lat="43.83739" lon="1.91755">
        <ele>205</ele>
        <time>2013-10-27T07:54:41.690Z</time>
      </trkpt>
      <trkpt lat="43.83735" lon="1.91745">
        <ele>205</ele>
        <time>2013-10-27T07:54:45.780Z</time>
      </trkpt>
      <trkpt lat="43.83732" lon="1.91734">
        <ele>205</ele>
        <time>2013-10-27T07:54:49.800Z</time>
      </trkpt>
      <trkpt lat="43.8373" lon="1.91722">
        <ele>205</ele>
        <time>2013-10-27T07:54:54.800Z</time>
      </trkpt>
      <trkpt lat="43.83727" lon="1.91713">
        <ele>205</ele>
        <time>2013-10-27T07:54:58.750Z</time>
      </trkpt>
      <trkpt lat="43.83725" lon="1.91701">
        <ele>205</ele>
        <time>2013-10-27T07:55:03.800Z</time>
      </trkpt>
      <trkpt lat="43.83722" lon="1.91687">
        <ele>205</ele>
        <time>2013-10-27T07:55:09.800Z</time>
      </trkpt>
      <trkpt lat="43.83719" lon="1.91675">
        <ele>205</ele>
        <time>2013-10-27T07:55:14.800Z</time>
      </trkpt>
      <trkpt lat="43.83714" lon="1.91662">
        <ele>205</ele>
        <time>2013-10-27T07:55:19.800Z</time>
      </trkpt>
      <trkpt lat="43.83711" lon="1.91653">
        <ele>205</ele>
        <time>2013-10-27T07:55:23.800Z</time>
      </trkpt>
      <trkpt lat="43.83708" lon="1.91643">
        <ele>205</ele>
        <time>2013-10-27T07:55:27.800Z</time>
      </trkpt>
      <trkpt lat="43.83706" lon="1.91633">
        <ele>205</ele>
        <time>2013-10-27T07:55:31.800Z</time>
      </trkpt>
      <trkpt lat="43.83703" lon="1.91623">
        <ele>205</ele>
        <time>2013-10-27T07:55:35.800Z</time>
      </trkpt>
      <trkpt lat="43.837" lon="1.91612">
        <ele>205</ele>
        <time>2013-10-27T07:55:39.800Z</time>
      </trkpt>
      <trkpt lat="43.83697" lon="1.91603">
        <ele>205</ele>
        <time>2013-10-27T07:55:43.800Z</time>
      </trkpt>
      <trkpt lat="43.83694" lon="1.91593">
        <ele>205</ele>
        <time>2013-10-27T07:55:47.800Z</time>
      </trkpt>
      <trkpt lat="43.8369" lon="1.91584">
        <ele>205</ele>
        <time>2013-10-27T07:55:51.700Z</time>
      </trkpt>
      <trkpt lat="43.83686" lon="1.91575">
        <ele>205</ele>
        <time>2013-10-27T07:55:55.700Z</time>
      </trkpt>
      <trkpt lat="43.83681" lon="1.91564">
        <ele>205</ele>
        <time>2013-10-27T07:56:00.700Z</time>
      </trkpt>
      <trkpt lat="43.83676" lon="1.91553">
        <ele>205</ele>
        <time>2013-10-27T07:56:05.700Z</time>
      </trkpt>
      <trkpt lat="43.83671" lon="1.91544">
        <ele>205</ele>
        <time>2013-10-27T07:56:09.700Z</time>
      </trkpt>
      <trkpt lat="43.83667" lon="1.91535">
        <ele>205</ele>
        <time>2013-10-27T07:56:13.700Z</time>
      </trkpt>
      <trkpt lat="43.83663" lon="1.91526">
        <ele>205</ele>
        <time>2013-10-27T07:56:17.700Z</time>
      </trkpt>
      <trkpt lat="43.83659" lon="1.91517">
        <ele>205</ele>
        <time>2013-10-27T07:56:21.700Z</time>
      </trkpt>
      <trkpt lat="43.83655" lon="1.91508">
        <ele>205</ele>
        <time>2013-10-27T07:56:25.700Z</time>
      </trkpt>
      <trkpt lat="43.83651" lon="1.91499">
        <ele>205</ele>
        <time>2013-10-27T07:56:29.700Z</time>
      </trkpt>
      <trkpt lat="43.83645" lon="1.91489">
        <ele>205</ele>
        <time>2013-10-27T07:56:34.700Z</time>
      </trkpt>
      <trkpt lat="43.83641" lon="1.91478">
        <ele>205</ele>
        <time>2013-10-27T07:56:39.700Z</time>
      </trkpt>
      <trkpt lat="43.83637" lon="1.91468">
        <ele>205</ele>
        <time>2013-10-27T07:56:43.900Z</time>
      </trkpt>
      <trkpt lat="43.83632" lon="1.91458">
        <ele>205</ele>
        <time>2013-10-27T07:56:48.700Z</time>
      </trkpt>
      <trkpt lat="43.83626" lon="1.91447">
        <ele>205</ele>
        <time>2013-10-27T07:56:53.700Z</time>
      </trkpt>
      <trkpt lat="43.83621" lon="1.91436">
        <ele>205</ele>
        <time>2013-10-27T07:56:58.700Z</time>
      </trkpt>
      <trkpt lat="43.83614" lon="1.91426">
        <ele>205</ele>
        <time>2013-10-27T07:57:04.700Z</time>
      </trkpt>
      <trkpt lat="43.83606" lon="1.91416">
        <ele>205</ele>
        <time>2013-10-27T07:57:10.700Z</time>
      </trkpt>
      <trkpt lat="43.83595" lon="1.9141">
        <ele>205</ele>
        <time>2013-10-27T07:57:16.700Z</time>
      </trkpt>
      <trkpt lat="43.83585" lon="1.91404">
        <ele>205</ele>
        <time>2013-10-27T07:57:22.700Z</time>
      </trkpt>
      <trkpt lat="43.83574" lon="1.91398">
        <ele>205</ele>
        <time>2013-10-27T07:57:28.700Z</time>
      </trkpt>
      <trkpt lat="43.83566" lon="1.91394">
        <ele>205</ele>
        <time>2013-10-27T07:57:32.700Z</time>
      </trkpt>
      <trkpt lat="43.83558" lon="1.91391">
        <ele>205</ele>
        <time>2013-10-27T07:57:36.700Z</time>
      </trkpt>
      <trkpt lat="43.83551" lon="1.91388">
        <ele>205</ele>
        <time>2013-10-27T07:57:40.680Z</time>
      </trkpt>
      <trkpt lat="43.83545" lon="1.91386">
        <ele>205</ele>
        <time>2013-10-27T07:57:43.700Z</time>
      </trkpt>
      <trkpt lat="43.83538" lon="1.91382">
        <ele>205</ele>
        <time>2013-10-27T07:57:47.800Z</time>
      </trkpt>
      <trkpt lat="43.83532" lon="1.9138">
        <ele>205</ele>
        <time>2013-10-27T07:57:50.700Z</time>
      </trkpt>
      <trkpt lat="43.83525" lon="1.91376">
        <ele>205</ele>
        <time>2013-10-27T07:57:54.700Z</time>
      </trkpt>
      <trkpt lat="43.83518" lon="1.91373">
        <ele>205</ele>
        <time>2013-10-27T07:57:58.700Z</time>
      </trkpt>
      <trkpt lat="43.83511" lon="1.91369">
        <ele>205</ele>
        <time>2013-10-27T07:58:02.700Z</time>
      </trkpt>
      <trkpt lat="43.83504" lon="1.91365">
        <ele>205</ele>
        <time>2013-10-27T07:58:06.700Z</time>
      </trkpt>
      <trkpt lat="43.83498" lon="1.91359">
        <ele>205</ele>
        <time>2013-10-27T07:58:10.700Z</time>
      </trkpt>
      <trkpt lat="43.83489" lon="1.91351">
        <ele>205</ele>
        <time>2013-10-27T07:58:15.700Z</time>
      </trkpt>
      <trkpt lat="43.8348" lon="1.91341">
        <ele>205</ele>
        <time>2013-10-27T07:58:21.700Z</time>
      </trkpt>
      <trkpt lat="43.83473" lon="1.91334">
        <ele>205</ele>
        <time>2013-10-27T07:58:25.700Z</time>
      </trkpt>
      <trkpt lat="43.83465" lon="1.91324">
        <ele>205</ele>
        <time>2013-10-27T07:58:31.700Z</time>
      </trkpt>
      <trkpt lat="43.83461" lon="1.91316">
        <ele>205</ele>
        <time>2013-10-27T07:58:35.700Z</time>
      </trkpt>
      <trkpt lat="43.83455" lon="1.91307">
        <ele>205</ele>
        <time>2013-10-27T07:58:40.780Z</time>
      </trkpt>
      <trkpt lat="43.8345" lon="1.91299">
        <ele>205</ele>
        <time>2013-10-27T07:58:44.800Z</time>
      </trkpt>
      <trkpt lat="43.83444" lon="1.91292">
        <ele>205</ele>
        <time>2013-10-27T07:58:48.800Z</time>
      </trkpt>
      <trkpt lat="43.83437" lon="1.91282">
        <ele>205</ele>
        <time>2013-10-27T07:58:53.800Z</time>
      </trkpt>
      <trkpt lat="43.83431" lon="1.91275">
        <ele>205</ele>
        <time>2013-10-27T07:58:57.780Z</time>
      </trkpt>
      <trkpt lat="43.83425" lon="1.91267">
        <ele>205</ele>
        <time>2013-10-27T07:59:02.800Z</time>
      </trkpt>
      <trkpt lat="43.83418" lon="1.91258">
        <ele>205</ele>
        <time>2013-10-27T07:59:07.800Z</time>
      </trkpt>
      <trkpt lat="43.8341" lon="1.9125">
        <ele>205</ele>
        <time>2013-10-27T07:59:12.800Z</time>
      </trkpt>
      <trkpt lat="43.83402" lon="1.91239">
        <ele>205</ele>
        <time>2013-10-27T07:59:18.800Z</time>
      </trkpt>
      <trkpt lat="43.83393" lon="1.91229">
        <ele>205</ele>
        <time>2013-10-27T07:59:24.800Z</time>
      </trkpt>
      <trkpt lat="43.83385" lon="1.9122">
        <ele>205</ele>
        <time>2013-10-27T07:59:29.800Z</time>
      </trkpt>
      <trkpt lat="43.83379" lon="1.91213">
        <ele>205</ele>
        <time>2013-10-27T07:59:33.800Z</time>
      </trkpt>
      <trkpt lat="43.83373" lon="1.91205">
        <ele>205</ele>
        <time>2013-10-27T07:59:37.800Z</time>
      </trkpt>
      <trkpt lat="43.83364" lon="1.91198">
        <ele>205</ele>
        <time>2013-10-27T07:59:42.800Z</time>
      </trkpt>
      <trkpt lat="43.83357" lon="1.91188">
        <ele>205</ele>
        <time>2013-10-27T07:59:47.750Z</time>
      </trkpt>
      <trkpt lat="43.83351" lon="1.91176">
        <ele>205</ele>
        <time>2013-10-27T07:59:53.800Z</time>
      </trkpt>
      <trkpt lat="43.83343" lon="1.91167">
        <ele>205</ele>
        <time>2013-10-27T07:59:58.800Z</time>
      </trkpt>
      <trkpt lat="43.83338" lon="1.91159">
        <ele>205</ele>
        <time>2013-10-27T08:00:03.800Z</time>
      </trkpt>
      <trkpt lat="43.83332" lon="1.91151">
        <ele>205</ele>
        <time>2013-10-27T08:00:07.800Z</time>
      </trkpt>
      <trkpt lat="43.83325" lon="1.91142">
        <ele>205</ele>
        <time>2013-10-27T08:00:12.800Z</time>
      </trkpt>
      <trkpt lat="43.83317" lon="1.91132">
        <ele>205</ele>
        <time>2013-10-27T08:00:18.800Z</time>
      </trkpt>
      <trkpt lat="43.83309" lon="1.91121">
        <ele>205</ele>
        <time>2013-10-27T08:00:24.700Z</time>
      </trkpt>
      <trkpt lat="43.83303" lon="1.91113">
        <ele>205</ele>
        <time>2013-10-27T08:00:28.700Z</time>
      </trkpt>
      <trkpt lat="43.83297" lon="1.91107">
        <ele>205</ele>
        <time>2013-10-27T08:00:32.700Z</time>
      </trkpt>
      <trkpt lat="43.8329" lon="1.91098">
        <ele>205</ele>
        <time>2013-10-27T08:00:37.700Z</time>
      </trkpt>
      <trkpt lat="43.83285" lon="1.9109">
        <ele>205</ele>
        <time>2013-10-27T08:00:41.700Z</time>
      </trkpt>
      <trkpt lat="43.8328" lon="1.91081">
        <ele>205</ele>
        <time>2013-10-27T08:00:45.700Z</time>
      </trkpt>
      <trkpt lat="43.83273" lon="1.91072">
        <ele>205</ele>
        <time>2013-10-27T08:00:50.700Z</time>
      </trkpt>
      <trkpt lat="43.83266" lon="1.91062">
        <ele>205</ele>
        <time>2013-10-27T08:00:55.650Z</time>
      </trkpt>
      <trkpt lat="43.8326" lon="1.91055">
        <ele>205</ele>
        <time>2013-10-27T08:00:59.700Z</time>
      </trkpt>
      <trkpt lat="43.83255" lon="1.91048">
        <ele>205</ele>
        <time>2013-10-27T08:01:03.660Z</time>
      </trkpt>
      <trkpt lat="43.83249" lon="1.91039">
        <ele>205</ele>
        <time>2013-10-27T08:01:07.700Z</time>
      </trkpt>
      <trkpt lat="43.83243" lon="1.91032">
        <ele>205</ele>
        <time>2013-10-27T08:01:11.700Z</time>
      </trkpt>
      <trkpt lat="43.83238" lon="1.91025">
        <ele>205</ele>
        <time>2013-10-27T08:01:15.700Z</time>
      </trkpt>
      <trkpt lat="43.83233" lon="1.91016">
        <ele>205</ele>
        <time>2013-10-27T08:01:19.680Z</time>
      </trkpt>
      <trkpt lat="43.83227" lon="1.91004">
        <ele>200</ele>
        <time>2013-10-27T08:01:24.700Z</time>
      </trkpt>
      <trkpt lat="43.83221" lon="1.90996">
        <ele>199</ele>
        <time>2013-10-27T08:01:28.700Z</time>
      </trkpt>
      <trkpt lat="43.83216" lon="1.90987">
        <ele>199</ele>
        <time>2013-10-27T08:01:32.700Z</time>
      </trkpt>
      <trkpt lat="43.83211" lon="1.90979">
        <ele>199</ele>
        <time>2013-10-27T08:01:36.680Z</time>
      </trkpt>
      <trkpt lat="43.83205" lon="1.90969">
        <ele>199</ele>
        <time>2013-10-27T08:01:40.700Z</time>
      </trkpt>
      <trkpt lat="43.83201" lon="1.90959">
        <ele>199</ele>
        <time>2013-10-27T08:01:44.700Z</time>
      </trkpt>
      <trkpt lat="43.83197" lon="1.90947">
        <ele>199</ele>
        <time>2013-10-27T08:01:49.700Z</time>
      </trkpt>
      <trkpt lat="43.83193" lon="1.90933">
        <ele>199</ele>
        <time>2013-10-27T08:01:54.700Z</time>
      </trkpt>
      <trkpt lat="43.83196" lon="1.90921">
        <ele>199</ele>
        <time>2013-10-27T08:01:59.700Z</time>
      </trkpt>
      <trkpt lat="43.832" lon="1.90911">
        <ele>198</ele>
        <time>2013-10-27T08:02:03.650Z</time>
      </trkpt>
      <trkpt lat="43.83204" lon="1.90902">
        <ele>198</ele>
        <time>2013-10-27T08:02:07.650Z</time>
      </trkpt>
      <trkpt lat="43.83208" lon="1.90892">
        <ele>198</ele>
        <time>2013-10-27T08:02:11.700Z</time>
      </trkpt>
      <trkpt lat="43.8321" lon="1.90881">
        <ele>198</ele>
        <time>2013-10-27T08:02:15.700Z</time>
      </trkpt>
      <trkpt lat="43.83211" lon="1.9087">
        <ele>198</ele>
        <time>2013-10-27T08:02:19.700Z</time>
      </trkpt>
      <trkpt lat="43.83209" lon="1.90857">
        <ele>199</ele>
        <time>2013-10-27T08:02:24.700Z</time>
      </trkpt>
      <trkpt lat="43.83206" lon="1.90844">
        <ele>199</ele>
        <time>2013-10-27T08:02:29.700Z</time>
      </trkpt>
      <trkpt lat="43.83203" lon="1.90832">
        <ele>199</ele>
        <time>2013-10-27T08:02:33.700Z</time>
      </trkpt>
      <trkpt lat="43.832" lon="1.90819">
        <ele>199</ele>
        <time>2013-10-27T08:02:38.680Z</time>
      </trkpt>
      <trkpt lat="43.83198" lon="1.90806">
        <ele>200</ele>
        <time>2013-10-27T08:02:43.700Z</time>
      </trkpt>
      <trkpt lat="43.83195" lon="1.9079">
        <ele>200</ele>
        <time>2013-10-27T08:02:49.700Z</time>
      </trkpt>
      <trkpt lat="43.83192" lon="1.90778">
        <ele>203</ele>
        <time>2013-10-27T08:02:54.730Z</time>
      </trkpt>
      <trkpt lat="43.8319" lon="1.90767">
        <ele>204</ele>
        <time>2013-10-27T08:02:59.800Z</time>
      </trkpt>
      <trkpt lat="43.83188" lon="1.90757">
        <ele>204</ele>
        <time>2013-10-27T08:03:03.800Z</time>
      </trkpt>
      <trkpt lat="43.83188" lon="1.90757">
        <ele>204</ele>
        <time>2013-10-27T08:03:04.500Z</time>
      </trkpt>
      <trkpt lat="43.83187" lon="1.90751">
        <ele>205</ele>
        <time>2013-10-27T08:04:14.440Z</time>
      </trkpt>
      <trkpt lat="43.83182" lon="1.90733">
        <ele>205</ele>
        <time>2013-10-27T08:04:22.700Z</time>
      </trkpt>
      <trkpt lat="43.83179" lon="1.9072">
        <ele>205</ele>
        <time>2013-10-27T08:04:27.700Z</time>
      </trkpt>
      <trkpt lat="43.83177" lon="1.9071">
        <ele>205</ele>
        <time>2013-10-27T08:04:31.700Z</time>
      </trkpt>
      <trkpt lat="43.83175" lon="1.90696">
        <ele>205</ele>
        <time>2013-10-27T08:04:36.700Z</time>
      </trkpt>
      <trkpt lat="43.83172" lon="1.90683">
        <ele>205</ele>
        <time>2013-10-27T08:04:41.700Z</time>
      </trkpt>
      <trkpt lat="43.8317" lon="1.90669">
        <ele>205</ele>
        <time>2013-10-27T08:04:46.700Z</time>
      </trkpt>
      <trkpt lat="43.83167" lon="1.90655">
        <ele>205</ele>
        <time>2013-10-27T08:04:51.700Z</time>
      </trkpt>
      <trkpt lat="43.83163" lon="1.9064">
        <ele>205</ele>
        <time>2013-10-27T08:04:57.700Z</time>
      </trkpt>
      <trkpt lat="43.83159" lon="1.90624">
        <ele>204</ele>
        <time>2013-10-27T08:05:03.700Z</time>
      </trkpt>
      <trkpt lat="43.83154" lon="1.90612">
        <ele>204</ele>
        <time>2013-10-27T08:05:08.800Z</time>
      </trkpt>
      <trkpt lat="43.83153" lon="1.90596">
        <ele>205</ele>
        <time>2013-10-27T08:05:14.800Z</time>
      </trkpt>
      <trkpt lat="43.83153" lon="1.9058">
        <ele>205</ele>
        <time>2013-10-27T08:05:20.800Z</time>
      </trkpt>
      <trkpt lat="43.83151" lon="1.90564">
        <ele>205</ele>
        <time>2013-10-27T08:05:26.800Z</time>
      </trkpt>
      <trkpt lat="43.83149" lon="1.9055">
        <ele>204</ele>
        <time>2013-10-27T08:05:31.800Z</time>
      </trkpt>
      <trkpt lat="43.83147" lon="1.90536">
        <ele>204</ele>
        <time>2013-10-27T08:05:36.800Z</time>
      </trkpt>
      <trkpt lat="43.83145" lon="1.90522">
        <ele>204</ele>
        <time>2013-10-27T08:05:41.800Z</time>
      </trkpt>
      <trkpt lat="43.83144" lon="1.90506">
        <ele>204</ele>
        <time>2013-10-27T08:05:47.800Z</time>
      </trkpt>
      <trkpt lat="43.83141" lon="1.90493">
        <ele>204</ele>
        <time>2013-10-27T08:05:52.800Z</time>
      </trkpt>
      <trkpt lat="43.83138" lon="1.9048">
        <ele>204</ele>
        <time>2013-10-27T08:05:57.690Z</time>
      </trkpt>
      <trkpt lat="43.83135" lon="1.90464">
        <ele>201</ele>
        <time>2013-10-27T08:06:03.800Z</time>
      </trkpt>
      <trkpt lat="43.83133" lon="1.90448">
        <ele>203</ele>
        <time>2013-10-27T08:06:09.800Z</time>
      </trkpt>
      <trkpt lat="43.83129" lon="1.90435">
        <ele>203</ele>
        <time>2013-10-27T08:06:14.750Z</time>
      </trkpt>
      <trkpt lat="43.83124" lon="1.90424">
        <ele>203</ele>
        <time>2013-10-27T08:06:18.800Z</time>
      </trkpt>
      <trkpt lat="43.83118" lon="1.90412">
        <ele>203</ele>
        <time>2013-10-27T08:06:23.800Z</time>
      </trkpt>
      <trkpt lat="43.83112" lon="1.90401">
        <ele>203</ele>
        <time>2013-10-27T08:06:28.760Z</time>
      </trkpt>
      <trkpt lat="43.83106" lon="1.90388">
        <ele>202</ele>
        <time>2013-10-27T08:06:34.800Z</time>
      </trkpt>
      <trkpt lat="43.83099" lon="1.90376">
        <ele>201.3500032</ele>
        <time>2013-10-27T08:06:40.800Z</time>
      </trkpt>
      <trkpt lat="43.83091" lon="1.90366">
        <ele>201</ele>
        <time>2013-10-27T08:06:45.800Z</time>
      </trkpt>
      <trkpt lat="43.83083" lon="1.90361">
        <ele>201</ele>
        <time>2013-10-27T08:06:50.800Z</time>
      </trkpt>
      <trkpt lat="43.83073" lon="1.90357">
        <ele>201</ele>
        <time>2013-10-27T08:06:56.800Z</time>
      </trkpt>
      <trkpt lat="43.83064" lon="1.90353">
        <ele>201</ele>
        <time>2013-10-27T08:07:01.800Z</time>
      </trkpt>
      <trkpt lat="43.83054" lon="1.90352">
        <ele>201</ele>
        <time>2013-10-27T08:07:06.700Z</time>
      </trkpt>
      <trkpt lat="43.83044" lon="1.90351">
        <ele>201</ele>
        <time>2013-10-27T08:07:11.700Z</time>
      </trkpt>
      <trkpt lat="43.83034" lon="1.90349">
        <ele>201</ele>
        <time>2013-10-27T08:07:16.800Z</time>
      </trkpt>
      <trkpt lat="43.83026" lon="1.90348">
        <ele>200.4499968</ele>
        <time>2013-10-27T08:07:20.700Z</time>
      </trkpt>
      <trkpt lat="43.83017" lon="1.90347">
        <ele>200</ele>
        <time>2013-10-27T08:07:24.700Z</time>
      </trkpt>
      <trkpt lat="43.83007" lon="1.90344">
        <ele>200</ele>
        <time>2013-10-27T08:07:29.700Z</time>
      </trkpt>
      <trkpt lat="43.82997" lon="1.90342">
        <ele>199</ele>
        <time>2013-10-27T08:07:34.640Z</time>
      </trkpt>
      <trkpt lat="43.82985" lon="1.90341">
        <ele>199</ele>
        <time>2013-10-27T08:07:40.800Z</time>
      </trkpt>
      <trkpt lat="43.82975" lon="1.90339">
        <ele>199</ele>
        <time>2013-10-27T08:07:45.800Z</time>
      </trkpt>
      <trkpt lat="43.82965" lon="1.90337">
        <ele>199</ele>
        <time>2013-10-27T08:07:50.780Z</time>
      </trkpt>
      <trkpt lat="43.82958" lon="1.90335">
        <ele>199</ele>
        <time>2013-10-27T08:07:54.800Z</time>
      </trkpt>
      <trkpt lat="43.82952" lon="1.90334">
        <ele>199</ele>
        <time>2013-10-27T08:07:57.800Z</time>
      </trkpt>
      <trkpt lat="43.82945" lon="1.90333">
        <ele>198.3500032</ele>
        <time>2013-10-27T08:08:00.800Z</time>
      </trkpt>
      <trkpt lat="43.82938" lon="1.90332">
        <ele>198</ele>
        <time>2013-10-27T08:08:04.800Z</time>
      </trkpt>
      <trkpt lat="43.82932" lon="1.9033">
        <ele>198</ele>
        <time>2013-10-27T08:08:07.800Z</time>
      </trkpt>
      <trkpt lat="43.82924" lon="1.90329">
        <ele>199</ele>
        <time>2013-10-27T08:08:11.800Z</time>
      </trkpt>
      <trkpt lat="43.82915" lon="1.90327">
        <ele>199</ele>
        <time>2013-10-27T08:08:15.800Z</time>
      </trkpt>
      <trkpt lat="43.82907" lon="1.90326">
        <ele>199</ele>
        <time>2013-10-27T08:08:19.760Z</time>
      </trkpt>
      <trkpt lat="43.829" lon="1.90324">
        <ele>199</ele>
        <time>2013-10-27T08:08:23.800Z</time>
      </trkpt>
      <trkpt lat="43.82892" lon="1.90323">
        <ele>199</ele>
        <time>2013-10-27T08:08:27.800Z</time>
      </trkpt>
      <trkpt lat="43.82885" lon="1.90322">
        <ele>199</ele>
        <time>2013-10-27T08:08:31.800Z</time>
      </trkpt>
      <trkpt lat="43.82879" lon="1.90319">
        <ele>199</ele>
        <time>2013-10-27T08:08:35.800Z</time>
      </trkpt>
      <trkpt lat="43.82875" lon="1.90308">
        <ele>199</ele>
        <time>2013-10-27T08:08:40.800Z</time>
      </trkpt>
      <trkpt lat="43.82877" lon="1.90292">
        <ele>199</ele>
        <time>2013-10-27T08:08:46.800Z</time>
      </trkpt>
      <trkpt lat="43.8288" lon="1.90277">
        <ele>199</ele>
        <time>2013-10-27T08:08:52.800Z</time>
      </trkpt>
      <trkpt lat="43.82883" lon="1.90263">
        <ele>199</ele>
        <time>2013-10-27T08:08:57.800Z</time>
      </trkpt>
      <trkpt lat="43.82888" lon="1.9025">
        <ele>199</ele>
        <time>2013-10-27T08:09:02.800Z</time>
      </trkpt>
      <trkpt lat="43.82891" lon="1.90236">
        <ele>199</ele>
        <time>2013-10-27T08:09:07.700Z</time>
      </trkpt>
      <trkpt lat="43.82894" lon="1.90225">
        <ele>199</ele>
        <time>2013-10-27T08:09:11.700Z</time>
      </trkpt>
      <trkpt lat="43.82896" lon="1.9021">
        <ele>199</ele>
        <time>2013-10-27T08:09:17.700Z</time>
      </trkpt>
      <trkpt lat="43.82899" lon="1.90195">
        <ele>199</ele>
        <time>2013-10-27T08:09:23.800Z</time>
      </trkpt>
      <trkpt lat="43.82903" lon="1.90181">
        <ele>199</ele>
        <time>2013-10-27T08:09:28.800Z</time>
      </trkpt>
      <trkpt lat="43.82907" lon="1.90167">
        <ele>198</ele>
        <time>2013-10-27T08:09:34.800Z</time>
      </trkpt>
      <trkpt lat="43.82912" lon="1.90154">
        <ele>198</ele>
        <time>2013-10-27T08:09:39.800Z</time>
      </trkpt>
      <trkpt lat="43.82918" lon="1.90141">
        <ele>197</ele>
        <time>2013-10-27T08:09:44.800Z</time>
      </trkpt>
      <trkpt lat="43.82925" lon="1.9013">
        <ele>197</ele>
        <time>2013-10-27T08:09:49.800Z</time>
      </trkpt>
      <trkpt lat="43.82931" lon="1.90123">
        <ele>194</ele>
        <time>2013-10-27T08:09:53.800Z</time>
      </trkpt>
      <trkpt lat="43.82935" lon="1.90114">
        <ele>193</ele>
        <time>2013-10-27T08:09:57.800Z</time>
      </trkpt>
      <trkpt lat="43.82942" lon="1.90103">
        <ele>193</ele>
        <time>2013-10-27T08:10:02.800Z</time>
      </trkpt>
      <trkpt lat="43.82948" lon="1.90093">
        <ele>193</ele>
        <time>2013-10-27T08:10:06.800Z</time>
      </trkpt>
      <trkpt lat="43.82954" lon="1.90084">
        <ele>193</ele>
        <time>2013-10-27T08:10:10.800Z</time>
      </trkpt>
      <trkpt lat="43.82959" lon="1.90077">
        <ele>193</ele>
        <time>2013-10-27T08:10:14.700Z</time>
      </trkpt>
      <trkpt lat="43.82964" lon="1.90066">
        <ele>193</ele>
        <time>2013-10-27T08:10:19.700Z</time>
      </trkpt>
      <trkpt lat="43.82969" lon="1.90058">
        <ele>193</ele>
        <time>2013-10-27T08:10:23.700Z</time>
      </trkpt>
      <trkpt lat="43.82974" lon="1.90049">
        <ele>193</ele>
        <time>2013-10-27T08:10:27.700Z</time>
      </trkpt>
      <trkpt lat="43.82979" lon="1.9004">
        <ele>192</ele>
        <time>2013-10-27T08:10:31.700Z</time>
      </trkpt>
      <trkpt lat="43.82983" lon="1.90031">
        <ele>192</ele>
        <time>2013-10-27T08:10:35.700Z</time>
      </trkpt>
      <trkpt lat="43.82988" lon="1.90022">
        <ele>192</ele>
        <time>2013-10-27T08:10:39.700Z</time>
      </trkpt>
      <trkpt lat="43.82993" lon="1.9001">
        <ele>192</ele>
        <time>2013-10-27T08:10:44.700Z</time>
      </trkpt>
      <trkpt lat="43.82998" lon="1.89997">
        <ele>192</ele>
        <time>2013-10-27T08:10:49.700Z</time>
      </trkpt>
      <trkpt lat="43.83003" lon="1.89983">
        <ele>191</ele>
        <time>2013-10-27T08:10:55.700Z</time>
      </trkpt>
      <trkpt lat="43.83009" lon="1.89971">
        <ele>191</ele>
        <time>2013-10-27T08:11:00.700Z</time>
      </trkpt>
      <trkpt lat="43.83015" lon="1.89959">
        <ele>191</ele>
        <time>2013-10-27T08:11:05.800Z</time>
      </trkpt>
      <trkpt lat="43.83019" lon="1.89945">
        <ele>191</ele>
        <time>2013-10-27T08:11:10.800Z</time>
      </trkpt>
      <trkpt lat="43.8302" lon="1.89934">
        <ele>191</ele>
        <time>2013-10-27T08:11:14.800Z</time>
      </trkpt>
      <trkpt lat="43.83019" lon="1.89922">
        <ele>191</ele>
        <time>2013-10-27T08:11:18.800Z</time>
      </trkpt>
      <trkpt lat="43.83017" lon="1.89914">
        <ele>191</ele>
        <time>2013-10-27T08:11:21.800Z</time>
      </trkpt>
      <trkpt lat="43.83016" lon="1.89905">
        <ele>191</ele>
        <time>2013-10-27T08:11:24.800Z</time>
      </trkpt>
      <trkpt lat="43.83015" lon="1.89897">
        <ele>191</ele>
        <time>2013-10-27T08:11:27.780Z</time>
      </trkpt>
      <trkpt lat="43.83014" lon="1.89885">
        <ele>189</ele>
        <time>2013-10-27T08:11:31.800Z</time>
      </trkpt>
      <trkpt lat="43.83013" lon="1.89871">
        <ele>189</ele>
        <time>2013-10-27T08:11:36.800Z</time>
      </trkpt>
      <trkpt lat="43.83013" lon="1.89859">
        <ele>188.3500032</ele>
        <time>2013-10-27T08:11:40.800Z</time>
      </trkpt>
      <trkpt lat="43.83013" lon="1.89846">
        <ele>188</ele>
        <time>2013-10-27T08:11:44.800Z</time>
      </trkpt>
      <trkpt lat="43.83013" lon="1.89831">
        <ele>188</ele>
        <time>2013-10-27T08:11:49.800Z</time>
      </trkpt>
      <trkpt lat="43.8301" lon="1.89817">
        <ele>188</ele>
        <time>2013-10-27T08:11:54.650Z</time>
      </trkpt>
      <trkpt lat="43.83007" lon="1.89803">
        <ele>187.1600128</ele>
        <time>2013-10-27T08:12:00.570Z</time>
      </trkpt>
      <trkpt lat="43.83008" lon="1.89789">
        <ele>186</ele>
        <time>2013-10-27T08:12:06.700Z</time>
      </trkpt>
      <trkpt lat="43.83013" lon="1.89775">
        <ele>186</ele>
        <time>2013-10-27T08:12:12.700Z</time>
      </trkpt>
      <trkpt lat="43.83019" lon="1.89764">
        <ele>186</ele>
        <time>2013-10-27T08:12:17.700Z</time>
      </trkpt>
      <trkpt lat="43.83027" lon="1.89755">
        <ele>186</ele>
        <time>2013-10-27T08:12:22.700Z</time>
      </trkpt>
      <trkpt lat="43.83035" lon="1.89747">
        <ele>186</ele>
        <time>2013-10-27T08:12:27.700Z</time>
      </trkpt>
      <trkpt lat="43.83043" lon="1.89737">
        <ele>187</ele>
        <time>2013-10-27T08:12:32.700Z</time>
      </trkpt>
      <trkpt lat="43.83052" lon="1.89729">
        <ele>187</ele>
        <time>2013-10-27T08:12:37.700Z</time>
      </trkpt>
      <trkpt lat="43.8306" lon="1.89723">
        <ele>187</ele>
        <time>2013-10-27T08:12:42.700Z</time>
      </trkpt>
      <trkpt lat="43.83066" lon="1.89716">
        <ele>187</ele>
        <time>2013-10-27T08:12:46.680Z</time>
      </trkpt>
      <trkpt lat="43.83075" lon="1.89706">
        <ele>188</ele>
        <time>2013-10-27T08:12:52.700Z</time>
      </trkpt>
      <trkpt lat="43.83083" lon="1.897">
        <ele>188</ele>
        <time>2013-10-27T08:12:57.700Z</time>
      </trkpt>
      <trkpt lat="43.83092" lon="1.89693">
        <ele>189</ele>
        <time>2013-10-27T08:13:02.750Z</time>
      </trkpt>
      <trkpt lat="43.83098" lon="1.89688">
        <ele>189</ele>
        <time>2013-10-27T08:13:06.800Z</time>
      </trkpt>
      <trkpt lat="43.83105" lon="1.89682">
        <ele>189.6499968</ele>
        <time>2013-10-27T08:13:10.800Z</time>
      </trkpt>
      <trkpt lat="43.83111" lon="1.89678">
        <ele>190</ele>
        <time>2013-10-27T08:13:14.800Z</time>
      </trkpt>
      <trkpt lat="43.83118" lon="1.89674">
        <ele>190</ele>
        <time>2013-10-27T08:13:18.800Z</time>
      </trkpt>
      <trkpt lat="43.83125" lon="1.89668">
        <ele>190</ele>
        <time>2013-10-27T08:13:22.800Z</time>
      </trkpt>
      <trkpt lat="43.83132" lon="1.89663">
        <ele>190</ele>
        <time>2013-10-27T08:13:26.800Z</time>
      </trkpt>
      <trkpt lat="43.83139" lon="1.89657">
        <ele>189.3500032</ele>
        <time>2013-10-27T08:13:30.800Z</time>
      </trkpt>
      <trkpt lat="43.83147" lon="1.89651">
        <ele>189</ele>
        <time>2013-10-27T08:13:35.800Z</time>
      </trkpt>
      <trkpt lat="43.83155" lon="1.89644">
        <ele>187.7000064</ele>
        <time>2013-10-27T08:13:40.800Z</time>
      </trkpt>
      <trkpt lat="43.83163" lon="1.89639">
        <ele>187</ele>
        <time>2013-10-27T08:13:44.800Z</time>
      </trkpt>
      <trkpt lat="43.8317" lon="1.89634">
        <ele>187</ele>
        <time>2013-10-27T08:13:48.800Z</time>
      </trkpt>
      <trkpt lat="43.83177" lon="1.89628">
        <ele>186</ele>
        <time>2013-10-27T08:13:52.800Z</time>
      </trkpt>
      <trkpt lat="43.83187" lon="1.89622">
        <ele>186</ele>
        <time>2013-10-27T08:13:57.700Z</time>
      </trkpt>
      <trkpt lat="43.83193" lon="1.89616">
        <ele>185</ele>
        <time>2013-10-27T08:14:01.700Z</time>
      </trkpt>
      <trkpt lat="43.83199" lon="1.89611">
        <ele>185</ele>
        <time>2013-10-27T08:14:04.700Z</time>
      </trkpt>
      <trkpt lat="43.83205" lon="1.89605">
        <ele>185</ele>
        <time>2013-10-27T08:14:08.700Z</time>
      </trkpt>
      <trkpt lat="43.83212" lon="1.89597">
        <ele>185</ele>
        <time>2013-10-27T08:14:13.700Z</time>
      </trkpt>
      <trkpt lat="43.83219" lon="1.89588">
        <ele>185</ele>
        <time>2013-10-27T08:14:18.700Z</time>
      </trkpt>
      <trkpt lat="43.83227" lon="1.89577">
        <ele>185</ele>
        <time>2013-10-27T08:14:24.700Z</time>
      </trkpt>
      <trkpt lat="43.83236" lon="1.89567">
        <ele>185</ele>
        <time>2013-10-27T08:14:29.700Z</time>
      </trkpt>
      <trkpt lat="43.83244" lon="1.89558">
        <ele>185</ele>
        <time>2013-10-27T08:14:34.700Z</time>
      </trkpt>
      <trkpt lat="43.83251" lon="1.89548">
        <ele>185</ele>
        <time>2013-10-27T08:14:39.700Z</time>
      </trkpt>
      <trkpt lat="43.83258" lon="1.89538">
        <ele>186</ele>
        <time>2013-10-27T08:14:44.750Z</time>
      </trkpt>
      <trkpt lat="43.83266" lon="1.89527">
        <ele>186</ele>
        <time>2013-10-27T08:14:50.700Z</time>
      </trkpt>
      <trkpt lat="43.83274" lon="1.89516">
        <ele>186</ele>
        <time>2013-10-27T08:14:56.700Z</time>
      </trkpt>
      <trkpt lat="43.83282" lon="1.89504">
        <ele>185</ele>
        <time>2013-10-27T08:15:02.800Z</time>
      </trkpt>
      <trkpt lat="43.8329" lon="1.89494">
        <ele>185</ele>
        <time>2013-10-27T08:15:08.800Z</time>
      </trkpt>
      <trkpt lat="43.83298" lon="1.89483">
        <ele>186</ele>
        <time>2013-10-27T08:15:14.800Z</time>
      </trkpt>
      <trkpt lat="43.83306" lon="1.89472">
        <ele>186</ele>
        <time>2013-10-27T08:15:19.800Z</time>
      </trkpt>
      <trkpt lat="43.83313" lon="1.89462">
        <ele>186</ele>
        <time>2013-10-27T08:15:24.800Z</time>
      </trkpt>
      <trkpt lat="43.83322" lon="1.89451">
        <ele>186</ele>
        <time>2013-10-27T08:15:30.800Z</time>
      </trkpt>
      <trkpt lat="43.83328" lon="1.89441">
        <ele>186</ele>
        <time>2013-10-27T08:15:35.750Z</time>
      </trkpt>
      <trkpt lat="43.83336" lon="1.8943">
        <ele>186</ele>
        <time>2013-10-27T08:15:41.800Z</time>
      </trkpt>
      <trkpt lat="43.83343" lon="1.8942">
        <ele>186</ele>
        <time>2013-10-27T08:15:47.800Z</time>
      </trkpt>
      <trkpt lat="43.83352" lon="1.89411">
        <ele>186</ele>
        <time>2013-10-27T08:15:52.590Z</time>
      </trkpt>
      <trkpt lat="43.8336" lon="1.89401">
        <ele>187</ele>
        <time>2013-10-27T08:15:57.700Z</time>
      </trkpt>
      <trkpt lat="43.83367" lon="1.89393">
        <ele>188</ele>
        <time>2013-10-27T08:16:02.700Z</time>
      </trkpt>
      <trkpt lat="43.83373" lon="1.89384">
        <ele>188</ele>
        <time>2013-10-27T08:16:07.700Z</time>
      </trkpt>
      <trkpt lat="43.83379" lon="1.89373">
        <ele>188</ele>
        <time>2013-10-27T08:16:12.700Z</time>
      </trkpt>
      <trkpt lat="43.83384" lon="1.89363">
        <ele>188</ele>
        <time>2013-10-27T08:16:16.700Z</time>
      </trkpt>
      <trkpt lat="43.83389" lon="1.89355">
        <ele>188</ele>
        <time>2013-10-27T08:16:20.700Z</time>
      </trkpt>
      <trkpt lat="43.83392" lon="1.89343">
        <ele>188</ele>
        <time>2013-10-27T08:16:25.700Z</time>
      </trkpt>
      <trkpt lat="43.83394" lon="1.89331">
        <ele>188</ele>
        <time>2013-10-27T08:16:29.700Z</time>
      </trkpt>
      <trkpt lat="43.83396" lon="1.89318">
        <ele>190</ele>
        <time>2013-10-27T08:16:34.700Z</time>
      </trkpt>
      <trkpt lat="43.83398" lon="1.89304">
        <ele>190</ele>
        <time>2013-10-27T08:16:39.700Z</time>
      </trkpt>
      <trkpt lat="43.834" lon="1.89291">
        <ele>190</ele>
        <time>2013-10-27T08:16:44.700Z</time>
      </trkpt>
      <trkpt lat="43.83402" lon="1.89278">
        <ele>190</ele>
        <time>2013-10-27T08:16:49.700Z</time>
      </trkpt>
      <trkpt lat="43.83405" lon="1.89266">
        <ele>189</ele>
        <time>2013-10-27T08:16:54.700Z</time>
      </trkpt>
      <trkpt lat="43.83409" lon="1.89255">
        <ele>189</ele>
        <time>2013-10-27T08:16:58.700Z</time>
      </trkpt>
      <trkpt lat="43.83413" lon="1.89246">
        <ele>190</ele>
        <time>2013-10-27T08:17:02.800Z</time>
      </trkpt>
      <trkpt lat="43.83417" lon="1.89237">
        <ele>190</ele>
        <time>2013-10-27T08:17:06.800Z</time>
      </trkpt>
      <trkpt lat="43.83422" lon="1.89229">
        <ele>189.3500032</ele>
        <time>2013-10-27T08:17:10.800Z</time>
      </trkpt>
      <trkpt lat="43.83426" lon="1.89219">
        <ele>189</ele>
        <time>2013-10-27T08:17:14.800Z</time>
      </trkpt>
      <trkpt lat="43.8343" lon="1.89211">
        <ele>189</ele>
        <time>2013-10-27T08:17:18.700Z</time>
      </trkpt>
      <trkpt lat="43.83434" lon="1.89202">
        <ele>189</ele>
        <time>2013-10-27T08:17:22.700Z</time>
      </trkpt>
      <trkpt lat="43.83439" lon="1.89192">
        <ele>189</ele>
        <time>2013-10-27T08:17:27.700Z</time>
      </trkpt>
      <trkpt lat="43.83444" lon="1.8918">
        <ele>189</ele>
        <time>2013-10-27T08:17:32.700Z</time>
      </trkpt>
      <trkpt lat="43.83447" lon="1.89171">
        <ele>189</ele>
        <time>2013-10-27T08:17:36.700Z</time>
      </trkpt>
      <trkpt lat="43.8345" lon="1.89161">
        <ele>189</ele>
        <time>2013-10-27T08:17:40.700Z</time>
      </trkpt>
      <trkpt lat="43.83454" lon="1.89152">
        <ele>189</ele>
        <time>2013-10-27T08:17:44.700Z</time>
      </trkpt>
      <trkpt lat="43.83458" lon="1.89142">
        <ele>189</ele>
        <time>2013-10-27T08:17:48.700Z</time>
      </trkpt>
      <trkpt lat="43.83463" lon="1.89132">
        <ele>189</ele>
        <time>2013-10-27T08:17:52.800Z</time>
      </trkpt>
      <trkpt lat="43.83467" lon="1.89119">
        <ele>189</ele>
        <time>2013-10-27T08:17:57.800Z</time>
      </trkpt>
      <trkpt lat="43.83469" lon="1.89107">
        <ele>191</ele>
        <time>2013-10-27T08:18:01.800Z</time>
      </trkpt>
      <trkpt lat="43.83468" lon="1.89092">
        <ele>191</ele>
        <time>2013-10-27T08:18:06.800Z</time>
      </trkpt>
      <trkpt lat="43.83466" lon="1.89078">
        <ele>190</ele>
        <time>2013-10-27T08:18:11.800Z</time>
      </trkpt>
      <trkpt lat="43.83463" lon="1.89065">
        <ele>190</ele>
        <time>2013-10-27T08:18:16.800Z</time>
      </trkpt>
      <trkpt lat="43.8346" lon="1.89051">
        <ele>189</ele>
        <time>2013-10-27T08:18:21.800Z</time>
      </trkpt>
      <trkpt lat="43.83457" lon="1.89037">
        <ele>189</ele>
        <time>2013-10-27T08:18:26.800Z</time>
      </trkpt>
      <trkpt lat="43.83453" lon="1.89022">
        <ele>190</ele>
        <time>2013-10-27T08:18:32.800Z</time>
      </trkpt>
      <trkpt lat="43.83451" lon="1.89009">
        <ele>190</ele>
        <time>2013-10-27T08:18:37.800Z</time>
      </trkpt>
      <trkpt lat="43.83451" lon="1.88997">
        <ele>189</ele>
        <time>2013-10-27T08:18:41.800Z</time>
      </trkpt>
      <trkpt lat="43.83453" lon="1.88983">
        <ele>189</ele>
        <time>2013-10-27T08:18:46.800Z</time>
      </trkpt>
      <trkpt lat="43.83457" lon="1.88968">
        <ele>188</ele>
        <time>2013-10-27T08:18:52.800Z</time>
      </trkpt>
      <trkpt lat="43.83462" lon="1.88958">
        <ele>188</ele>
        <time>2013-10-27T08:18:56.800Z</time>
      </trkpt>
      <trkpt lat="43.83466" lon="1.88947">
        <ele>186.5000192</ele>
        <time>2013-10-27T08:19:00.650Z</time>
      </trkpt>
      <trkpt lat="43.83471" lon="1.88937">
        <ele>185</ele>
        <time>2013-10-27T08:19:04.700Z</time>
      </trkpt>
      <trkpt lat="43.83477" lon="1.88927">
        <ele>185</ele>
        <time>2013-10-27T08:19:09.700Z</time>
      </trkpt>
      <trkpt lat="43.83483" lon="1.8892">
        <ele>184</ele>
        <time>2013-10-27T08:19:13.700Z</time>
      </trkpt>
      <trkpt lat="43.83489" lon="1.88914">
        <ele>184</ele>
        <time>2013-10-27T08:19:17.680Z</time>
      </trkpt>
      <trkpt lat="43.83496" lon="1.88908">
        <ele>184</ele>
        <time>2013-10-27T08:19:22.700Z</time>
      </trkpt>
      <trkpt lat="43.83503" lon="1.88902">
        <ele>184</ele>
        <time>2013-10-27T08:19:26.700Z</time>
      </trkpt>
      <trkpt lat="43.83509" lon="1.88898">
        <ele>184</ele>
        <time>2013-10-27T08:19:29.700Z</time>
      </trkpt>
      <trkpt lat="43.83517" lon="1.88893">
        <ele>183</ele>
        <time>2013-10-27T08:19:33.630Z</time>
      </trkpt>
      <trkpt lat="43.83524" lon="1.88888">
        <ele>183</ele>
        <time>2013-10-27T08:19:37.700Z</time>
      </trkpt>
      <trkpt lat="43.83533" lon="1.88881">
        <ele>182</ele>
        <time>2013-10-27T08:19:42.700Z</time>
      </trkpt>
      <trkpt lat="43.83542" lon="1.88876">
        <ele>182</ele>
        <time>2013-10-27T08:19:47.700Z</time>
      </trkpt>
      <trkpt lat="43.83552" lon="1.8887">
        <ele>181</ele>
        <time>2013-10-27T08:19:52.800Z</time>
      </trkpt>
      <trkpt lat="43.83562" lon="1.88865">
        <ele>181</ele>
        <time>2013-10-27T08:19:57.800Z</time>
      </trkpt>
      <trkpt lat="43.83572" lon="1.88858">
        <ele>180</ele>
        <time>2013-10-27T08:20:03.800Z</time>
      </trkpt>
      <trkpt lat="43.83581" lon="1.88853">
        <ele>180</ele>
        <time>2013-10-27T08:20:08.800Z</time>
      </trkpt>
      <trkpt lat="43.83589" lon="1.8885">
        <ele>180</ele>
        <time>2013-10-27T08:20:12.800Z</time>
      </trkpt>
      <trkpt lat="43.836" lon="1.88848">
        <ele>180</ele>
        <time>2013-10-27T08:20:17.800Z</time>
      </trkpt>
      <trkpt lat="43.8361" lon="1.88848">
        <ele>179</ele>
        <time>2013-10-27T08:20:22.800Z</time>
      </trkpt>
      <trkpt lat="43.8362" lon="1.88851">
        <ele>179</ele>
        <time>2013-10-27T08:20:27.800Z</time>
      </trkpt>
      <trkpt lat="43.8363" lon="1.88854">
        <ele>178</ele>
        <time>2013-10-27T08:20:32.800Z</time>
      </trkpt>
      <trkpt lat="43.83641" lon="1.88857">
        <ele>178</ele>
        <time>2013-10-27T08:20:37.740Z</time>
      </trkpt>
      <trkpt lat="43.83652" lon="1.8886">
        <ele>177</ele>
        <time>2013-10-27T08:20:42.800Z</time>
      </trkpt>
      <trkpt lat="43.83662" lon="1.88861">
        <ele>177</ele>
        <time>2013-10-27T08:20:47.800Z</time>
      </trkpt>
      <trkpt lat="43.83672" lon="1.88862">
        <ele>175</ele>
        <time>2013-10-27T08:20:52.800Z</time>
      </trkpt>
      <trkpt lat="43.83682" lon="1.88864">
        <ele>175</ele>
        <time>2013-10-27T08:20:57.800Z</time>
      </trkpt>
      <trkpt lat="43.83693" lon="1.88867">
        <ele>175</ele>
        <time>2013-10-27T08:21:02.800Z</time>
      </trkpt>
      <trkpt lat="43.83703" lon="1.88869">
        <ele>175</ele>
        <time>2013-10-27T08:21:07.730Z</time>
      </trkpt>
      <trkpt lat="43.83712" lon="1.88871">
        <ele>174</ele>
        <time>2013-10-27T08:21:12.800Z</time>
      </trkpt>
      <trkpt lat="43.83722" lon="1.88873">
        <ele>174</ele>
        <time>2013-10-27T08:21:17.800Z</time>
      </trkpt>
      <trkpt lat="43.8373" lon="1.88874">
        <ele>173</ele>
        <time>2013-10-27T08:21:21.800Z</time>
      </trkpt>
      <trkpt lat="43.83739" lon="1.88876">
        <ele>173</ele>
        <time>2013-10-27T08:21:25.800Z</time>
      </trkpt>
      <trkpt lat="43.83748" lon="1.88876">
        <ele>173</ele>
        <time>2013-10-27T08:21:29.800Z</time>
      </trkpt>
      <trkpt lat="43.83755" lon="1.88875">
        <ele>172</ele>
        <time>2013-10-27T08:21:32.750Z</time>
      </trkpt>
      <trkpt lat="43.83762" lon="1.88871">
        <ele>172</ele>
        <time>2013-10-27T08:21:36.800Z</time>
      </trkpt>
      <trkpt lat="43.83769" lon="1.88865">
        <ele>170.8400128</ele>
        <time>2013-10-27T08:21:40.730Z</time>
      </trkpt>
      <trkpt lat="43.83775" lon="1.88857">
        <ele>170</ele>
        <time>2013-10-27T08:21:44.800Z</time>
      </trkpt>
      <trkpt lat="43.83781" lon="1.88849">
        <ele>170</ele>
        <time>2013-10-27T08:21:48.800Z</time>
      </trkpt>
      <trkpt lat="43.83787" lon="1.88842">
        <ele>170</ele>
        <time>2013-10-27T08:21:52.800Z</time>
      </trkpt>
      <trkpt lat="43.83791" lon="1.88834">
        <ele>170</ele>
        <time>2013-10-27T08:21:56.780Z</time>
      </trkpt>
      <trkpt lat="43.83798" lon="1.88827">
        <ele>170</ele>
        <time>2013-10-27T08:22:00.800Z</time>
      </trkpt>
      <trkpt lat="43.83803" lon="1.88819">
        <ele>170</ele>
        <time>2013-10-27T08:22:04.800Z</time>
      </trkpt>
      <trkpt lat="43.83808" lon="1.88813">
        <ele>170</ele>
        <time>2013-10-27T08:22:07.800Z</time>
      </trkpt>
      <trkpt lat="43.83814" lon="1.88805">
        <ele>169</ele>
        <time>2013-10-27T08:22:11.800Z</time>
      </trkpt>
      <trkpt lat="43.83818" lon="1.88798">
        <ele>169</ele>
        <time>2013-10-27T08:22:14.800Z</time>
      </trkpt>
      <trkpt lat="43.83822" lon="1.88792">
        <ele>169</ele>
        <time>2013-10-27T08:22:17.660Z</time>
      </trkpt>
      <trkpt lat="43.83827" lon="1.88785">
        <ele>169</ele>
        <time>2013-10-27T08:22:20.700Z</time>
      </trkpt>
      <trkpt lat="43.83831" lon="1.88779">
        <ele>169</ele>
        <time>2013-10-27T08:22:23.630Z</time>
      </trkpt>
      <trkpt lat="43.83835" lon="1.8877">
        <ele>169</ele>
        <time>2013-10-27T08:22:27.700Z</time>
      </trkpt>
      <trkpt lat="43.83838" lon="1.88763">
        <ele>169</ele>
        <time>2013-10-27T08:22:30.700Z</time>
      </trkpt>
      <trkpt lat="43.83844" lon="1.88754">
        <ele>169</ele>
        <time>2013-10-27T08:22:34.700Z</time>
      </trkpt>
      <trkpt lat="43.83847" lon="1.88745">
        <ele>169</ele>
        <time>2013-10-27T08:22:38.700Z</time>
      </trkpt>
      <trkpt lat="43.83853" lon="1.88735">
        <ele>169</ele>
        <time>2013-10-27T08:22:43.700Z</time>
      </trkpt>
      <trkpt lat="43.83857" lon="1.88724">
        <ele>169</ele>
        <time>2013-10-27T08:22:47.700Z</time>
      </trkpt>
      <trkpt lat="43.83861" lon="1.88717">
        <ele>168.4499968</ele>
        <time>2013-10-27T08:22:50.700Z</time>
      </trkpt>
      <trkpt lat="43.83866" lon="1.88708">
        <ele>168</ele>
        <time>2013-10-27T08:22:54.700Z</time>
      </trkpt>
      <trkpt lat="43.8387" lon="1.887">
        <ele>168</ele>
        <time>2013-10-27T08:22:58.800Z</time>
      </trkpt>
      <trkpt lat="43.83875" lon="1.88692">
        <ele>169</ele>
        <time>2013-10-27T08:23:02.800Z</time>
      </trkpt>
      <trkpt lat="43.83878" lon="1.88685">
        <ele>169</ele>
        <time>2013-10-27T08:23:05.800Z</time>
      </trkpt>
      <trkpt lat="43.83885" lon="1.88678">
        <ele>169</ele>
        <time>2013-10-27T08:23:09.800Z</time>
      </trkpt>
      <trkpt lat="43.8389" lon="1.8867">
        <ele>169</ele>
        <time>2013-10-27T08:23:13.800Z</time>
      </trkpt>
      <trkpt lat="43.83896" lon="1.88663">
        <ele>169</ele>
        <time>2013-10-27T08:23:17.800Z</time>
      </trkpt>
      <trkpt lat="43.83901" lon="1.88658">
        <ele>168.3500032</ele>
        <time>2013-10-27T08:23:20.800Z</time>
      </trkpt>
      <trkpt lat="43.83907" lon="1.88651">
        <ele>168</ele>
        <time>2013-10-27T08:23:24.800Z</time>
      </trkpt>
      <trkpt lat="43.83913" lon="1.88646">
        <ele>168</ele>
        <time>2013-10-27T08:23:27.800Z</time>
      </trkpt>
      <trkpt lat="43.83919" lon="1.88639">
        <ele>168</ele>
        <time>2013-10-27T08:23:31.750Z</time>
      </trkpt>
      <trkpt lat="43.83924" lon="1.88633">
        <ele>168</ele>
        <time>2013-10-27T08:23:35.800Z</time>
      </trkpt>
      <trkpt lat="43.83931" lon="1.88626">
        <ele>168</ele>
        <time>2013-10-27T08:23:39.800Z</time>
      </trkpt>
      <trkpt lat="43.83936" lon="1.88621">
        <ele>168</ele>
        <time>2013-10-27T08:23:42.800Z</time>
      </trkpt>
      <trkpt lat="43.8394" lon="1.88616">
        <ele>168</ele>
        <time>2013-10-27T08:23:45.800Z</time>
      </trkpt>
      <trkpt lat="43.83946" lon="1.8861">
        <ele>168</ele>
        <time>2013-10-27T08:23:49.700Z</time>
      </trkpt>
      <trkpt lat="43.83952" lon="1.88603">
        <ele>167</ele>
        <time>2013-10-27T08:23:53.700Z</time>
      </trkpt>
      <trkpt lat="43.83958" lon="1.88597">
        <ele>167</ele>
        <time>2013-10-27T08:23:57.680Z</time>
      </trkpt>
      <trkpt lat="43.83965" lon="1.88589">
        <ele>168</ele>
        <time>2013-10-27T08:24:01.700Z</time>
      </trkpt>
      <trkpt lat="43.8397" lon="1.88582">
        <ele>168</ele>
        <time>2013-10-27T08:24:05.750Z</time>
      </trkpt>
      <trkpt lat="43.83976" lon="1.88575">
        <ele>168</ele>
        <time>2013-10-27T08:24:09.800Z</time>
      </trkpt>
      <trkpt lat="43.83982" lon="1.88567">
        <ele>168</ele>
        <time>2013-10-27T08:24:13.800Z</time>
      </trkpt>
      <trkpt lat="43.83989" lon="1.88561">
        <ele>168</ele>
        <time>2013-10-27T08:24:17.800Z</time>
      </trkpt>
      <trkpt lat="43.83994" lon="1.88556">
        <ele>168</ele>
        <time>2013-10-27T08:24:20.800Z</time>
      </trkpt>
      <trkpt lat="43.84" lon="1.88551">
        <ele>168</ele>
        <time>2013-10-27T08:24:23.800Z</time>
      </trkpt>
      <trkpt lat="43.84004" lon="1.88546">
        <ele>168</ele>
        <time>2013-10-27T08:24:26.780Z</time>
      </trkpt>
      <trkpt lat="43.8401" lon="1.88539">
        <ele>168</ele>
        <time>2013-10-27T08:24:30.800Z</time>
      </trkpt>
      <trkpt lat="43.84016" lon="1.88532">
        <ele>168</ele>
        <time>2013-10-27T08:24:34.800Z</time>
      </trkpt>
      <trkpt lat="43.8402" lon="1.88527">
        <ele>168</ele>
        <time>2013-10-27T08:24:37.800Z</time>
      </trkpt>
      <trkpt lat="43.84027" lon="1.8852">
        <ele>167</ele>
        <time>2013-10-27T08:24:41.800Z</time>
      </trkpt>
      <trkpt lat="43.84033" lon="1.88513">
        <ele>167</ele>
        <time>2013-10-27T08:24:45.800Z</time>
      </trkpt>
      <trkpt lat="43.84039" lon="1.88506">
        <ele>167</ele>
        <time>2013-10-27T08:24:49.800Z</time>
      </trkpt>
      <trkpt lat="43.84045" lon="1.88498">
        <ele>168</ele>
        <time>2013-10-27T08:24:53.800Z</time>
      </trkpt>
      <trkpt lat="43.84052" lon="1.88493">
        <ele>168</ele>
        <time>2013-10-27T08:24:57.700Z</time>
      </trkpt>
      <trkpt lat="43.84058" lon="1.88488">
        <ele>167</ele>
        <time>2013-10-27T08:25:01.700Z</time>
      </trkpt>
      <trkpt lat="43.84066" lon="1.88482">
        <ele>167</ele>
        <time>2013-10-27T08:25:05.700Z</time>
      </trkpt>
      <trkpt lat="43.84073" lon="1.88474">
        <ele>167</ele>
        <time>2013-10-27T08:25:10.700Z</time>
      </trkpt>
      <trkpt lat="43.8408" lon="1.88466">
        <ele>167</ele>
        <time>2013-10-27T08:25:15.700Z</time>
      </trkpt>
      <trkpt lat="43.84087" lon="1.8846">
        <ele>167</ele>
        <time>2013-10-27T08:25:19.700Z</time>
      </trkpt>
      <trkpt lat="43.84093" lon="1.88454">
        <ele>167</ele>
        <time>2013-10-27T08:25:23.700Z</time>
      </trkpt>
      <trkpt lat="43.841" lon="1.88449">
        <ele>167</ele>
        <time>2013-10-27T08:25:27.700Z</time>
      </trkpt>
      <trkpt lat="43.84106" lon="1.88443">
        <ele>167</ele>
        <time>2013-10-27T08:25:31.700Z</time>
      </trkpt>
      <trkpt lat="43.84114" lon="1.88437">
        <ele>167</ele>
        <time>2013-10-27T08:25:35.700Z</time>
      </trkpt>
      <trkpt lat="43.84121" lon="1.88431">
        <ele>167</ele>
        <time>2013-10-27T08:25:39.700Z</time>
      </trkpt>
      <trkpt lat="43.84128" lon="1.88426">
        <ele>166</ele>
        <time>2013-10-27T08:25:43.900Z</time>
      </trkpt>
      <trkpt lat="43.84135" lon="1.8842">
        <ele>166</ele>
        <time>2013-10-27T08:25:47.650Z</time>
      </trkpt>
      <trkpt lat="43.84141" lon="1.88414">
        <ele>167</ele>
        <time>2013-10-27T08:25:51.700Z</time>
      </trkpt>
      <trkpt lat="43.84147" lon="1.88408">
        <ele>167</ele>
        <time>2013-10-27T08:25:55.700Z</time>
      </trkpt>
      <trkpt lat="43.84153" lon="1.88401">
        <ele>167</ele>
        <time>2013-10-27T08:25:59.700Z</time>
      </trkpt>
      <trkpt lat="43.8416" lon="1.88396">
        <ele>165</ele>
        <time>2013-10-27T08:26:03.700Z</time>
      </trkpt>
      <trkpt lat="43.84166" lon="1.88389">
        <ele>165</ele>
        <time>2013-10-27T08:26:07.700Z</time>
      </trkpt>
      <trkpt lat="43.84172" lon="1.88383">
        <ele>167</ele>
        <time>2013-10-27T08:26:11.700Z</time>
      </trkpt>
      <trkpt lat="43.84179" lon="1.88377">
        <ele>167</ele>
        <time>2013-10-27T08:26:15.700Z</time>
      </trkpt>
      <trkpt lat="43.84186" lon="1.88371">
        <ele>167</ele>
        <time>2013-10-27T08:26:19.700Z</time>
      </trkpt>
      <trkpt lat="43.84192" lon="1.88365">
        <ele>166</ele>
        <time>2013-10-27T08:26:23.700Z</time>
      </trkpt>
      <trkpt lat="43.84199" lon="1.88359">
        <ele>166</ele>
        <time>2013-10-27T08:26:27.700Z</time>
      </trkpt>
      <trkpt lat="43.84206" lon="1.88353">
        <ele>165</ele>
        <time>2013-10-27T08:26:31.620Z</time>
      </trkpt>
      <trkpt lat="43.84213" lon="1.88347">
        <ele>165</ele>
        <time>2013-10-27T08:26:35.700Z</time>
      </trkpt>
      <trkpt lat="43.8422" lon="1.88341">
        <ele>165</ele>
        <time>2013-10-27T08:26:39.700Z</time>
      </trkpt>
      <trkpt lat="43.84227" lon="1.88335">
        <ele>165</ele>
        <time>2013-10-27T08:26:43.700Z</time>
      </trkpt>
      <trkpt lat="43.84233" lon="1.88329">
        <ele>165</ele>
        <time>2013-10-27T08:26:47.680Z</time>
      </trkpt>
      <trkpt lat="43.84239" lon="1.88324">
        <ele>165</ele>
        <time>2013-10-27T08:26:50.700Z</time>
      </trkpt>
      <trkpt lat="43.84245" lon="1.88317">
        <ele>165</ele>
        <time>2013-10-27T08:26:54.700Z</time>
      </trkpt>
      <trkpt lat="43.84251" lon="1.88312">
        <ele>165</ele>
        <time>2013-10-27T08:26:58.800Z</time>
      </trkpt>
      <trkpt lat="43.84257" lon="1.88306">
        <ele>165</ele>
        <time>2013-10-27T08:27:02.800Z</time>
      </trkpt>
      <trkpt lat="43.84264" lon="1.883">
        <ele>165</ele>
        <time>2013-10-27T08:27:06.800Z</time>
      </trkpt>
      <trkpt lat="43.84271" lon="1.88295">
        <ele>164.3500032</ele>
        <time>2013-10-27T08:27:10.800Z</time>
      </trkpt>
      <trkpt lat="43.84278" lon="1.88289">
        <ele>164</ele>
        <time>2013-10-27T08:27:14.800Z</time>
      </trkpt>
      <trkpt lat="43.84284" lon="1.88283">
        <ele>164</ele>
        <time>2013-10-27T08:27:18.800Z</time>
      </trkpt>
      <trkpt lat="43.84291" lon="1.88276">
        <ele>164</ele>
        <time>2013-10-27T08:27:22.800Z</time>
      </trkpt>
      <trkpt lat="43.84298" lon="1.8827">
        <ele>164</ele>
        <time>2013-10-27T08:27:26.800Z</time>
      </trkpt>
      <trkpt lat="43.84304" lon="1.88263">
        <ele>164</ele>
        <time>2013-10-27T08:27:30.800Z</time>
      </trkpt>
      <trkpt lat="43.84311" lon="1.88257">
        <ele>164</ele>
        <time>2013-10-27T08:27:34.800Z</time>
      </trkpt>
      <trkpt lat="43.84317" lon="1.88252">
        <ele>164</ele>
        <time>2013-10-27T08:27:37.800Z</time>
      </trkpt>
      <trkpt lat="43.84325" lon="1.88243">
        <ele>164</ele>
        <time>2013-10-27T08:27:42.800Z</time>
      </trkpt>
      <trkpt lat="43.84331" lon="1.88233">
        <ele>164</ele>
        <time>2013-10-27T08:27:47.700Z</time>
      </trkpt>
      <trkpt lat="43.84335" lon="1.88227">
        <ele>163.4499968</ele>
        <time>2013-10-27T08:27:50.700Z</time>
      </trkpt>
      <trkpt lat="43.8434" lon="1.88221">
        <ele>163</ele>
        <time>2013-10-27T08:27:53.700Z</time>
      </trkpt>
      <trkpt lat="43.84344" lon="1.88214">
        <ele>163</ele>
        <time>2013-10-27T08:27:56.700Z</time>
      </trkpt>
      <trkpt lat="43.84348" lon="1.88208">
        <ele>163</ele>
        <time>2013-10-27T08:27:59.700Z</time>
      </trkpt>
      <trkpt lat="43.84352" lon="1.88203">
        <ele>163</ele>
        <time>2013-10-27T08:28:02.680Z</time>
      </trkpt>
      <trkpt lat="43.84357" lon="1.88198">
        <ele>163</ele>
        <time>2013-10-27T08:28:05.700Z</time>
      </trkpt>
      <trkpt lat="43.84363" lon="1.88192">
        <ele>163</ele>
        <time>2013-10-27T08:28:09.700Z</time>
      </trkpt>
      <trkpt lat="43.84368" lon="1.88189">
        <ele>163</ele>
        <time>2013-10-27T08:28:12.700Z</time>
      </trkpt>
      <trkpt lat="43.84374" lon="1.88186">
        <ele>163</ele>
        <time>2013-10-27T08:28:15.700Z</time>
      </trkpt>
      <trkpt lat="43.8438" lon="1.88183">
        <ele>163</ele>
        <time>2013-10-27T08:28:18.680Z</time>
      </trkpt>
      <trkpt lat="43.84386" lon="1.8818">
        <ele>163</ele>
        <time>2013-10-27T08:28:21.700Z</time>
      </trkpt>
      <trkpt lat="43.84392" lon="1.88177">
        <ele>163</ele>
        <time>2013-10-27T08:28:24.700Z</time>
      </trkpt>
      <trkpt lat="43.84397" lon="1.88174">
        <ele>163</ele>
        <time>2013-10-27T08:28:27.700Z</time>
      </trkpt>
      <trkpt lat="43.84404" lon="1.88171">
        <ele>162</ele>
        <time>2013-10-27T08:28:31.700Z</time>
      </trkpt>
      <trkpt lat="43.84411" lon="1.88167">
        <ele>162</ele>
        <time>2013-10-27T08:28:35.700Z</time>
      </trkpt>
      <trkpt lat="43.84418" lon="1.88165">
        <ele>162</ele>
        <time>2013-10-27T08:28:38.700Z</time>
      </trkpt>
      <trkpt lat="43.84424" lon="1.88163">
        <ele>161</ele>
        <time>2013-10-27T08:28:41.700Z</time>
      </trkpt>
      <trkpt lat="43.8443" lon="1.88161">
        <ele>161</ele>
        <time>2013-10-27T08:28:44.700Z</time>
      </trkpt>
      <trkpt lat="43.84437" lon="1.88159">
        <ele>161</ele>
        <time>2013-10-27T08:28:48.700Z</time>
      </trkpt>
      <trkpt lat="43.84444" lon="1.88158">
        <ele>160</ele>
        <time>2013-10-27T08:28:51.700Z</time>
      </trkpt>
      <trkpt lat="43.84449" lon="1.88157">
        <ele>160</ele>
        <time>2013-10-27T08:28:54.750Z</time>
      </trkpt>
      <trkpt lat="43.84455" lon="1.88156">
        <ele>160</ele>
        <time>2013-10-27T08:28:57.800Z</time>
      </trkpt>
      <trkpt lat="43.84463" lon="1.88154">
        <ele>158</ele>
        <time>2013-10-27T08:29:01.800Z</time>
      </trkpt>
      <trkpt lat="43.84469" lon="1.88153">
        <ele>158</ele>
        <time>2013-10-27T08:29:04.800Z</time>
      </trkpt>
      <trkpt lat="43.84476" lon="1.88151">
        <ele>158</ele>
        <time>2013-10-27T08:29:08.800Z</time>
      </trkpt>
      <trkpt lat="43.84484" lon="1.8815">
        <ele>158</ele>
        <time>2013-10-27T08:29:12.800Z</time>
      </trkpt>
      <trkpt lat="43.84492" lon="1.88148">
        <ele>158</ele>
        <time>2013-10-27T08:29:16.800Z</time>
      </trkpt>
      <trkpt lat="43.845" lon="1.88149">
        <ele>157.3500032</ele>
        <time>2013-10-27T08:29:20.800Z</time>
      </trkpt>
      <trkpt lat="43.84511" lon="1.88149">
        <ele>157</ele>
        <time>2013-10-27T08:29:25.800Z</time>
      </trkpt>
      <trkpt lat="43.8452" lon="1.88149">
        <ele>157</ele>
        <time>2013-10-27T08:29:29.800Z</time>
      </trkpt>
      <trkpt lat="43.84525" lon="1.88149">
        <ele>158</ele>
        <time>2013-10-27T08:29:32.800Z</time>
      </trkpt>
      <trkpt lat="43.84531" lon="1.88149">
        <ele>158</ele>
        <time>2013-10-27T08:29:35.800Z</time>
      </trkpt>
      <trkpt lat="43.84537" lon="1.88149">
        <ele>158</ele>
        <time>2013-10-27T08:29:38.800Z</time>
      </trkpt>
      <trkpt lat="43.84543" lon="1.88149">
        <ele>158</ele>
        <time>2013-10-27T08:29:41.800Z</time>
      </trkpt>
      <trkpt lat="43.84549" lon="1.88149">
        <ele>158</ele>
        <time>2013-10-27T08:29:44.800Z</time>
      </trkpt>
      <trkpt lat="43.84555" lon="1.88148">
        <ele>158</ele>
        <time>2013-10-27T08:29:47.760Z</time>
      </trkpt>
      <trkpt lat="43.84562" lon="1.88147">
        <ele>157</ele>
        <time>2013-10-27T08:29:51.800Z</time>
      </trkpt>
      <trkpt lat="43.84571" lon="1.88146">
        <ele>157</ele>
        <time>2013-10-27T08:29:55.800Z</time>
      </trkpt>
      <trkpt lat="43.84578" lon="1.88146">
        <ele>157</ele>
        <time>2013-10-27T08:29:59.800Z</time>
      </trkpt>
      <trkpt lat="43.84586" lon="1.88144">
        <ele>158</ele>
        <time>2013-10-27T08:30:03.800Z</time>
      </trkpt>
      <trkpt lat="43.84595" lon="1.88142">
        <ele>158</ele>
        <time>2013-10-27T08:30:08.800Z</time>
      </trkpt>
      <trkpt lat="43.84602" lon="1.88141">
        <ele>158</ele>
        <time>2013-10-27T08:30:12.800Z</time>
      </trkpt>
      <trkpt lat="43.8461" lon="1.8814">
        <ele>158</ele>
        <time>2013-10-27T08:30:16.800Z</time>
      </trkpt>
      <trkpt lat="43.84618" lon="1.88139">
        <ele>159.2999936</ele>
        <time>2013-10-27T08:30:20.800Z</time>
      </trkpt>
      <trkpt lat="43.84625" lon="1.88138">
        <ele>160</ele>
        <time>2013-10-27T08:30:24.800Z</time>
      </trkpt>
      <trkpt lat="43.84633" lon="1.88136">
        <ele>160</ele>
        <time>2013-10-27T08:30:28.800Z</time>
      </trkpt>
      <trkpt lat="43.84641" lon="1.88134">
        <ele>161</ele>
        <time>2013-10-27T08:30:33.800Z</time>
      </trkpt>
      <trkpt lat="43.84648" lon="1.88132">
        <ele>161</ele>
        <time>2013-10-27T08:30:37.700Z</time>
      </trkpt>
      <trkpt lat="43.84656" lon="1.8813">
        <ele>162</ele>
        <time>2013-10-27T08:30:42.700Z</time>
      </trkpt>
      <trkpt lat="43.84664" lon="1.88128">
        <ele>162</ele>
        <time>2013-10-27T08:30:46.700Z</time>
      </trkpt>
      <trkpt lat="43.84671" lon="1.88126">
        <ele>162.5500032</ele>
        <time>2013-10-27T08:30:50.700Z</time>
      </trkpt>
      <trkpt lat="43.84679" lon="1.88124">
        <ele>163</ele>
        <time>2013-10-27T08:30:55.730Z</time>
      </trkpt>
      <trkpt lat="43.84687" lon="1.88123">
        <ele>163</ele>
        <time>2013-10-27T08:30:59.800Z</time>
      </trkpt>
      <trkpt lat="43.84694" lon="1.8812">
        <ele>164</ele>
        <time>2013-10-27T08:31:03.800Z</time>
      </trkpt>
      <trkpt lat="43.84701" lon="1.88119">
        <ele>164</ele>
        <time>2013-10-27T08:31:07.760Z</time>
      </trkpt>
      <trkpt lat="43.84712" lon="1.88116">
        <ele>165</ele>
        <time>2013-10-27T08:31:13.800Z</time>
      </trkpt>
      <trkpt lat="43.84723" lon="1.88115">
        <ele>165</ele>
        <time>2013-10-27T08:31:19.800Z</time>
      </trkpt>
      <trkpt lat="43.84733" lon="1.88115">
        <ele>166</ele>
        <time>2013-10-27T08:31:25.800Z</time>
      </trkpt>
      <trkpt lat="43.84744" lon="1.88116">
        <ele>167</ele>
        <time>2013-10-27T08:31:31.800Z</time>
      </trkpt>
      <trkpt lat="43.84751" lon="1.88118">
        <ele>167</ele>
        <time>2013-10-27T08:31:36.800Z</time>
      </trkpt>
      <trkpt lat="43.8476" lon="1.8812">
        <ele>169</ele>
        <time>2013-10-27T08:31:41.780Z</time>
      </trkpt>
      <trkpt lat="43.84768" lon="1.88124">
        <ele>169</ele>
        <time>2013-10-27T08:31:46.700Z</time>
      </trkpt>
      <trkpt lat="43.84775" lon="1.88126">
        <ele>169</ele>
        <time>2013-10-27T08:31:50.700Z</time>
      </trkpt>
      <trkpt lat="43.84783" lon="1.88128">
        <ele>169</ele>
        <time>2013-10-27T08:31:55.700Z</time>
      </trkpt>
      <trkpt lat="43.84791" lon="1.88129">
        <ele>169.52884923077</ele>
        <time>2013-10-27T08:32:00.700Z</time>
      </trkpt>
      <trkpt lat="43.84797" lon="1.88129">
        <ele>170</ele>
        <time>2013-10-27T08:32:04.700Z</time>
      </trkpt>
      <trkpt lat="43.84805" lon="1.8813">
        <ele>170</ele>
        <time>2013-10-27T08:32:08.700Z</time>
      </trkpt>
      <trkpt lat="43.84811" lon="1.88131">
        <ele>170</ele>
        <time>2013-10-27T08:32:12.700Z</time>
      </trkpt>
      <trkpt lat="43.84818" lon="1.88133">
        <ele>170</ele>
        <time>2013-10-27T08:32:16.700Z</time>
      </trkpt>
      <trkpt lat="43.84822" lon="1.88134">
        <ele>170</ele>
        <time>2013-10-27T08:32:19.700Z</time>
      </trkpt>
      <trkpt lat="43.84831" lon="1.88136">
        <ele>172</ele>
        <time>2013-10-27T08:32:24.700Z</time>
      </trkpt>
      <trkpt lat="43.84836" lon="1.88137">
        <ele>172</ele>
        <time>2013-10-27T08:32:27.680Z</time>
      </trkpt>
      <trkpt lat="43.84841" lon="1.88137">
        <ele>172.5500032</ele>
        <time>2013-10-27T08:32:30.700Z</time>
      </trkpt>
      <trkpt lat="43.84847" lon="1.88138">
        <ele>173</ele>
        <time>2013-10-27T08:32:33.700Z</time>
      </trkpt>
      <trkpt lat="43.84852" lon="1.88139">
        <ele>173</ele>
        <time>2013-10-27T08:32:36.700Z</time>
      </trkpt>
      <trkpt lat="43.84857" lon="1.8814">
        <ele>173</ele>
        <time>2013-10-27T08:32:39.700Z</time>
      </trkpt>
      <trkpt lat="43.84864" lon="1.88142">
        <ele>174</ele>
        <time>2013-10-27T08:32:43.680Z</time>
      </trkpt>
      <trkpt lat="43.84874" lon="1.88142">
        <ele>174</ele>
        <time>2013-10-27T08:32:49.700Z</time>
      </trkpt>
      <trkpt lat="43.84883" lon="1.88144">
        <ele>174</ele>
        <time>2013-10-27T08:32:54.800Z</time>
      </trkpt>
      <trkpt lat="43.84894" lon="1.88146">
        <ele>174.6499968</ele>
        <time>2013-10-27T08:33:00.800Z</time>
      </trkpt>
      <trkpt lat="43.84905" lon="1.88149">
        <ele>175</ele>
        <time>2013-10-27T08:33:06.800Z</time>
      </trkpt>
      <trkpt lat="43.84914" lon="1.88153">
        <ele>175</ele>
        <time>2013-10-27T08:33:11.760Z</time>
      </trkpt>
      <trkpt lat="43.84923" lon="1.88156">
        <ele>175</ele>
        <time>2013-10-27T08:33:16.760Z</time>
      </trkpt>
      <trkpt lat="43.8493" lon="1.88159">
        <ele>175</ele>
        <time>2013-10-27T08:33:21.660Z</time>
      </trkpt>
      <trkpt lat="43.8494" lon="1.88164">
        <ele>175</ele>
        <time>2013-10-27T08:33:27.700Z</time>
      </trkpt>
      <trkpt lat="43.8495" lon="1.88171">
        <ele>174</ele>
        <time>2013-10-27T08:33:32.700Z</time>
      </trkpt>
      <trkpt lat="43.84957" lon="1.88178">
        <ele>174</ele>
        <time>2013-10-27T08:33:36.700Z</time>
      </trkpt>
      <trkpt lat="43.84964" lon="1.88184">
        <ele>173.4499968</ele>
        <time>2013-10-27T08:33:40.700Z</time>
      </trkpt>
      <trkpt lat="43.84973" lon="1.88193">
        <ele>173</ele>
        <time>2013-10-27T08:33:46.800Z</time>
      </trkpt>
      <trkpt lat="43.84981" lon="1.88201">
        <ele>173</ele>
        <time>2013-10-27T08:33:51.800Z</time>
      </trkpt>
      <trkpt lat="43.84989" lon="1.8821">
        <ele>173</ele>
        <time>2013-10-27T08:33:56.800Z</time>
      </trkpt>
      <trkpt lat="43.84997" lon="1.88217">
        <ele>174</ele>
        <time>2013-10-27T08:34:01.800Z</time>
      </trkpt>
      <trkpt lat="43.85004" lon="1.88222">
        <ele>174</ele>
        <time>2013-10-27T08:34:05.800Z</time>
      </trkpt>
      <trkpt lat="43.85013" lon="1.88229">
        <ele>174</ele>
        <time>2013-10-27T08:34:11.800Z</time>
      </trkpt>
      <trkpt lat="43.85021" lon="1.88238">
        <ele>174</ele>
        <time>2013-10-27T08:34:16.800Z</time>
      </trkpt>
      <trkpt lat="43.8503" lon="1.88246">
        <ele>173</ele>
        <time>2013-10-27T08:34:21.700Z</time>
      </trkpt>
      <trkpt lat="43.85037" lon="1.88251">
        <ele>173</ele>
        <time>2013-10-27T08:34:25.700Z</time>
      </trkpt>
      <trkpt lat="43.85047" lon="1.88261">
        <ele>172</ele>
        <time>2013-10-27T08:34:31.700Z</time>
      </trkpt>
      <trkpt lat="43.85056" lon="1.88269">
        <ele>172</ele>
        <time>2013-10-27T08:34:36.800Z</time>
      </trkpt>
      <trkpt lat="43.85065" lon="1.88275">
        <ele>171</ele>
        <time>2013-10-27T08:34:41.800Z</time>
      </trkpt>
      <trkpt lat="43.85073" lon="1.88283">
        <ele>171</ele>
        <time>2013-10-27T08:34:46.800Z</time>
      </trkpt>
      <trkpt lat="43.85082" lon="1.88291">
        <ele>171</ele>
        <time>2013-10-27T08:34:51.730Z</time>
      </trkpt>
      <trkpt lat="43.8509" lon="1.88298">
        <ele>171</ele>
        <time>2013-10-27T08:34:56.800Z</time>
      </trkpt>
      <trkpt lat="43.851" lon="1.88307">
        <ele>170</ele>
        <time>2013-10-27T08:35:01.800Z</time>
      </trkpt>
      <trkpt lat="43.85109" lon="1.88314">
        <ele>170</ele>
        <time>2013-10-27T08:35:06.800Z</time>
      </trkpt>
      <trkpt lat="43.85119" lon="1.88321">
        <ele>170</ele>
        <time>2013-10-27T08:35:12.800Z</time>
      </trkpt>
      <trkpt lat="43.85128" lon="1.88331">
        <ele>170</ele>
        <time>2013-10-27T08:35:17.800Z</time>
      </trkpt>
      <trkpt lat="43.85136" lon="1.88338">
        <ele>170</ele>
        <time>2013-10-27T08:35:22.800Z</time>
      </trkpt>
      <trkpt lat="43.85142" lon="1.88348">
        <ele>170</ele>
        <time>2013-10-27T08:35:27.800Z</time>
      </trkpt>
      <trkpt lat="43.8515" lon="1.88358">
        <ele>169</ele>
        <time>2013-10-27T08:35:33.800Z</time>
      </trkpt>
      <trkpt lat="43.85155" lon="1.88369">
        <ele>169</ele>
        <time>2013-10-27T08:35:38.780Z</time>
      </trkpt>
      <trkpt lat="43.85159" lon="1.88381">
        <ele>169</ele>
        <time>2013-10-27T08:35:43.700Z</time>
      </trkpt>
      <trkpt lat="43.85161" lon="1.88393">
        <ele>169</ele>
        <time>2013-10-27T08:35:47.700Z</time>
      </trkpt>
      <trkpt lat="43.85163" lon="1.88403">
        <ele>169</ele>
        <time>2013-10-27T08:35:51.700Z</time>
      </trkpt>
      <trkpt lat="43.85166" lon="1.88416">
        <ele>169</ele>
        <time>2013-10-27T08:35:56.700Z</time>
      </trkpt>
      <trkpt lat="43.85168" lon="1.88428">
        <ele>170</ele>
        <time>2013-10-27T08:36:01.700Z</time>
      </trkpt>
      <trkpt lat="43.85171" lon="1.8844">
        <ele>170</ele>
        <time>2013-10-27T08:36:06.700Z</time>
      </trkpt>
      <trkpt lat="43.85173" lon="1.88451">
        <ele>170</ele>
        <time>2013-10-27T08:36:11.700Z</time>
      </trkpt>
      <trkpt lat="43.85177" lon="1.88467">
        <ele>170</ele>
        <time>2013-10-27T08:36:17.800Z</time>
      </trkpt>
      <trkpt lat="43.85181" lon="1.8848">
        <ele>172</ele>
        <time>2013-10-27T08:36:22.800Z</time>
      </trkpt>
      <trkpt lat="43.85183" lon="1.88492">
        <ele>172</ele>
        <time>2013-10-27T08:36:27.800Z</time>
      </trkpt>
      <trkpt lat="43.85185" lon="1.88504">
        <ele>172</ele>
        <time>2013-10-27T08:36:32.800Z</time>
      </trkpt>
      <trkpt lat="43.85189" lon="1.88518">
        <ele>172</ele>
        <time>2013-10-27T08:36:38.700Z</time>
      </trkpt>
      <trkpt lat="43.85193" lon="1.8853">
        <ele>173</ele>
        <time>2013-10-27T08:36:43.700Z</time>
      </trkpt>
      <trkpt lat="43.85196" lon="1.88542">
        <ele>173</ele>
        <time>2013-10-27T08:36:48.700Z</time>
      </trkpt>
      <trkpt lat="43.852" lon="1.88558">
        <ele>174</ele>
        <time>2013-10-27T08:36:54.700Z</time>
      </trkpt>
      <trkpt lat="43.85202" lon="1.88568">
        <ele>174</ele>
        <time>2013-10-27T08:36:58.700Z</time>
      </trkpt>
      <trkpt lat="43.85205" lon="1.8858">
        <ele>174</ele>
        <time>2013-10-27T08:37:03.700Z</time>
      </trkpt>
      <trkpt lat="43.85207" lon="1.8859">
        <ele>174</ele>
        <time>2013-10-27T08:37:07.650Z</time>
      </trkpt>
      <trkpt lat="43.85211" lon="1.88604">
        <ele>174</ele>
        <time>2013-10-27T08:37:13.700Z</time>
      </trkpt>
      <trkpt lat="43.85214" lon="1.88617">
        <ele>174</ele>
        <time>2013-10-27T08:37:18.700Z</time>
      </trkpt>
      <trkpt lat="43.85217" lon="1.88628">
        <ele>174</ele>
        <time>2013-10-27T08:37:23.700Z</time>
      </trkpt>
      <trkpt lat="43.8522" lon="1.88643">
        <ele>174</ele>
        <time>2013-10-27T08:37:29.700Z</time>
      </trkpt>
      <trkpt lat="43.85223" lon="1.88656">
        <ele>174</ele>
        <time>2013-10-27T08:37:34.700Z</time>
      </trkpt>
      <trkpt lat="43.85226" lon="1.88668">
        <ele>174</ele>
        <time>2013-10-27T08:37:39.700Z</time>
      </trkpt>
      <trkpt lat="43.85228" lon="1.88681">
        <ele>173</ele>
        <time>2013-10-27T08:37:44.800Z</time>
      </trkpt>
      <trkpt lat="43.85224" lon="1.88687">
        <ele>173</ele>
        <time>2013-10-27T08:37:47.800Z</time>
      </trkpt>
      <trkpt lat="43.85219" lon="1.88692">
        <ele>173</ele>
        <time>2013-10-27T08:37:50.660Z</time>
      </trkpt>
      <trkpt lat="43.85214" lon="1.88696">
        <ele>173</ele>
        <time>2013-10-27T08:37:53.700Z</time>
      </trkpt>
      <trkpt lat="43.85209" lon="1.88698">
        <ele>173</ele>
        <time>2013-10-27T08:37:56.700Z</time>
      </trkpt>
      <trkpt lat="43.85204" lon="1.88701">
        <ele>173</ele>
        <time>2013-10-27T08:37:59.700Z</time>
      </trkpt>
      <trkpt lat="43.85199" lon="1.88704">
        <ele>172</ele>
        <time>2013-10-27T08:38:02.700Z</time>
      </trkpt>
      <trkpt lat="43.85193" lon="1.88706">
        <ele>172</ele>
        <time>2013-10-27T08:38:05.700Z</time>
      </trkpt>
      <trkpt lat="43.85187" lon="1.88708">
        <ele>172</ele>
        <time>2013-10-27T08:38:08.700Z</time>
      </trkpt>
      <trkpt lat="43.85178" lon="1.88712">
        <ele>173</ele>
        <time>2013-10-27T08:38:13.700Z</time>
      </trkpt>
      <trkpt lat="43.85173" lon="1.88715">
        <ele>173</ele>
        <time>2013-10-27T08:38:16.700Z</time>
      </trkpt>
      <trkpt lat="43.85168" lon="1.88717">
        <ele>173</ele>
        <time>2013-10-27T08:38:19.700Z</time>
      </trkpt>
      <trkpt lat="43.8516" lon="1.88722">
        <ele>174</ele>
        <time>2013-10-27T08:38:24.700Z</time>
      </trkpt>
      <trkpt lat="43.8515" lon="1.88725">
        <ele>174</ele>
        <time>2013-10-27T08:38:29.700Z</time>
      </trkpt>
      <trkpt lat="43.85142" lon="1.88728">
        <ele>175</ele>
        <time>2013-10-27T08:38:33.800Z</time>
      </trkpt>
      <trkpt lat="43.85133" lon="1.88731">
        <ele>175</ele>
        <time>2013-10-27T08:38:38.800Z</time>
      </trkpt>
      <trkpt lat="43.85128" lon="1.88733">
        <ele>175</ele>
        <time>2013-10-27T08:38:41.800Z</time>
      </trkpt>
      <trkpt lat="43.85122" lon="1.88736">
        <ele>175</ele>
        <time>2013-10-27T08:38:44.800Z</time>
      </trkpt>
      <trkpt lat="43.85117" lon="1.88739">
        <ele>175</ele>
        <time>2013-10-27T08:38:47.800Z</time>
      </trkpt>
      <trkpt lat="43.85112" lon="1.88742">
        <ele>175</ele>
        <time>2013-10-27T08:38:50.800Z</time>
      </trkpt>
      <trkpt lat="43.85107" lon="1.88745">
        <ele>175</ele>
        <time>2013-10-27T08:38:53.800Z</time>
      </trkpt>
      <trkpt lat="43.85101" lon="1.88747">
        <ele>175</ele>
        <time>2013-10-27T08:38:56.780Z</time>
      </trkpt>
      <trkpt lat="43.85096" lon="1.88749">
        <ele>175</ele>
        <time>2013-10-27T08:38:59.800Z</time>
      </trkpt>
      <trkpt lat="43.85091" lon="1.88752">
        <ele>175</ele>
        <time>2013-10-27T08:39:02.800Z</time>
      </trkpt>
      <trkpt lat="43.85086" lon="1.88755">
        <ele>175</ele>
        <time>2013-10-27T08:39:05.800Z</time>
      </trkpt>
      <trkpt lat="43.85081" lon="1.88758">
        <ele>175</ele>
        <time>2013-10-27T08:39:08.800Z</time>
      </trkpt>
      <trkpt lat="43.85076" lon="1.88761">
        <ele>176</ele>
        <time>2013-10-27T08:39:11.780Z</time>
      </trkpt>
      <trkpt lat="43.85071" lon="1.88764">
        <ele>176</ele>
        <time>2013-10-27T08:39:14.800Z</time>
      </trkpt>
      <trkpt lat="43.85066" lon="1.88766">
        <ele>176</ele>
        <time>2013-10-27T08:39:17.800Z</time>
      </trkpt>
      <trkpt lat="43.8506" lon="1.88768">
        <ele>176.6499968</ele>
        <time>2013-10-27T08:39:20.800Z</time>
      </trkpt>
      <trkpt lat="43.85055" lon="1.88772">
        <ele>177</ele>
        <time>2013-10-27T08:39:23.750Z</time>
      </trkpt>
      <trkpt lat="43.8505" lon="1.88775">
        <ele>177</ele>
        <time>2013-10-27T08:39:26.800Z</time>
      </trkpt>
      <trkpt lat="43.85045" lon="1.88777">
        <ele>177</ele>
        <time>2013-10-27T08:39:29.800Z</time>
      </trkpt>
      <trkpt lat="43.8504" lon="1.8878">
        <ele>178</ele>
        <time>2013-10-27T08:39:32.800Z</time>
      </trkpt>
      <trkpt lat="43.85035" lon="1.88783">
        <ele>178</ele>
        <time>2013-10-27T08:39:35.800Z</time>
      </trkpt>
      <trkpt lat="43.85031" lon="1.88785">
        <ele>178</ele>
        <time>2013-10-27T08:39:38.800Z</time>
      </trkpt>
      <trkpt lat="43.85025" lon="1.88788">
        <ele>180</ele>
        <time>2013-10-27T08:39:41.700Z</time>
      </trkpt>
      <trkpt lat="43.85019" lon="1.88791">
        <ele>180</ele>
        <time>2013-10-27T08:39:45.700Z</time>
      </trkpt>
      <trkpt lat="43.85014" lon="1.88794">
        <ele>180</ele>
        <time>2013-10-27T08:39:48.700Z</time>
      </trkpt>
      <trkpt lat="43.85007" lon="1.88797">
        <ele>181</ele>
        <time>2013-10-27T08:39:52.700Z</time>
      </trkpt>
      <trkpt lat="43.85" lon="1.88802">
        <ele>181</ele>
        <time>2013-10-27T08:39:56.700Z</time>
      </trkpt>
      <trkpt lat="43.84995" lon="1.88805">
        <ele>181</ele>
        <time>2013-10-27T08:40:00.640Z</time>
      </trkpt>
      <trkpt lat="43.84988" lon="1.88809">
        <ele>181</ele>
        <time>2013-10-27T08:40:04.700Z</time>
      </trkpt>
      <trkpt lat="43.84981" lon="1.88813">
        <ele>181</ele>
        <time>2013-10-27T08:40:08.700Z</time>
      </trkpt>
      <trkpt lat="43.84974" lon="1.88817">
        <ele>182</ele>
        <time>2013-10-27T08:40:12.680Z</time>
      </trkpt>
      <trkpt lat="43.84966" lon="1.88822">
        <ele>182</ele>
        <time>2013-10-27T08:40:16.800Z</time>
      </trkpt>
      <trkpt lat="43.84962" lon="1.88825">
        <ele>182</ele>
        <time>2013-10-27T08:40:19.800Z</time>
      </trkpt>
      <trkpt lat="43.84956" lon="1.8883">
        <ele>182</ele>
        <time>2013-10-27T08:40:23.800Z</time>
      </trkpt>
      <trkpt lat="43.8495" lon="1.88834">
        <ele>182</ele>
        <time>2013-10-27T08:40:27.800Z</time>
      </trkpt>
      <trkpt lat="43.84944" lon="1.88837">
        <ele>184</ele>
        <time>2013-10-27T08:40:31.650Z</time>
      </trkpt>
      <trkpt lat="43.84938" lon="1.88841">
        <ele>184</ele>
        <time>2013-10-27T08:40:35.700Z</time>
      </trkpt>
      <trkpt lat="43.84933" lon="1.88846">
        <ele>184</ele>
        <time>2013-10-27T08:40:39.700Z</time>
      </trkpt>
      <trkpt lat="43.84928" lon="1.8885">
        <ele>184</ele>
        <time>2013-10-27T08:40:42.700Z</time>
      </trkpt>
      <trkpt lat="43.84922" lon="1.88855">
        <ele>184</ele>
        <time>2013-10-27T08:40:46.700Z</time>
      </trkpt>
      <trkpt lat="43.84918" lon="1.88859">
        <ele>184</ele>
        <time>2013-10-27T08:40:49.700Z</time>
      </trkpt>
      <trkpt lat="43.84913" lon="1.88862">
        <ele>184</ele>
        <time>2013-10-27T08:40:52.700Z</time>
      </trkpt>
      <trkpt lat="43.84908" lon="1.88865">
        <ele>184</ele>
        <time>2013-10-27T08:40:55.700Z</time>
      </trkpt>
      <trkpt lat="43.84903" lon="1.88869">
        <ele>184</ele>
        <time>2013-10-27T08:40:58.700Z</time>
      </trkpt>
      <trkpt lat="43.84897" lon="1.88873">
        <ele>184</ele>
        <time>2013-10-27T08:41:01.700Z</time>
      </trkpt>
      <trkpt lat="43.84893" lon="1.88876">
        <ele>184</ele>
        <time>2013-10-27T08:41:04.700Z</time>
      </trkpt>
      <trkpt lat="43.84888" lon="1.8888">
        <ele>184</ele>
        <time>2013-10-27T08:41:07.700Z</time>
      </trkpt>
      <trkpt lat="43.84883" lon="1.88884">
        <ele>184</ele>
        <time>2013-10-27T08:41:10.700Z</time>
      </trkpt>
      <trkpt lat="43.84879" lon="1.88888">
        <ele>184</ele>
        <time>2013-10-27T08:41:13.620Z</time>
      </trkpt>
      <trkpt lat="43.84873" lon="1.88893">
        <ele>184</ele>
        <time>2013-10-27T08:41:17.700Z</time>
      </trkpt>
      <trkpt lat="43.84866" lon="1.889">
        <ele>184</ele>
        <time>2013-10-27T08:41:22.690Z</time>
      </trkpt>
      <trkpt lat="43.84858" lon="1.88906">
        <ele>184</ele>
        <time>2013-10-27T08:41:27.800Z</time>
      </trkpt>
      <trkpt lat="43.8485" lon="1.88912">
        <ele>184</ele>
        <time>2013-10-27T08:41:32.800Z</time>
      </trkpt>
      <trkpt lat="43.84841" lon="1.88918">
        <ele>184</ele>
        <time>2013-10-27T08:41:37.800Z</time>
      </trkpt>
      <trkpt lat="43.84833" lon="1.88925">
        <ele>183</ele>
        <time>2013-10-27T08:41:42.800Z</time>
      </trkpt>
      <trkpt lat="43.84828" lon="1.88929">
        <ele>183</ele>
        <time>2013-10-27T08:41:45.800Z</time>
      </trkpt>
      <trkpt lat="43.84824" lon="1.88933">
        <ele>183</ele>
        <time>2013-10-27T08:41:48.800Z</time>
      </trkpt>
      <trkpt lat="43.84819" lon="1.88937">
        <ele>183</ele>
        <time>2013-10-27T08:41:51.800Z</time>
      </trkpt>
      <trkpt lat="43.8481" lon="1.88943">
        <ele>183</ele>
        <time>2013-10-27T08:41:56.650Z</time>
      </trkpt>
      <trkpt lat="43.84802" lon="1.8895">
        <ele>183</ele>
        <time>2013-10-27T08:42:01.700Z</time>
      </trkpt>
      <trkpt lat="43.84793" lon="1.88957">
        <ele>183</ele>
        <time>2013-10-27T08:42:06.700Z</time>
      </trkpt>
      <trkpt lat="43.84786" lon="1.88964">
        <ele>183</ele>
        <time>2013-10-27T08:42:11.700Z</time>
      </trkpt>
      <trkpt lat="43.84778" lon="1.88971">
        <ele>183</ele>
        <time>2013-10-27T08:42:16.680Z</time>
      </trkpt>
      <trkpt lat="43.8477" lon="1.88978">
        <ele>182</ele>
        <time>2013-10-27T08:42:21.700Z</time>
      </trkpt>
      <trkpt lat="43.84762" lon="1.88985">
        <ele>182</ele>
        <time>2013-10-27T08:42:26.700Z</time>
      </trkpt>
      <trkpt lat="43.84754" lon="1.88993">
        <ele>182</ele>
        <time>2013-10-27T08:42:31.800Z</time>
      </trkpt>
      <trkpt lat="43.84749" lon="1.88998">
        <ele>182</ele>
        <time>2013-10-27T08:42:34.800Z</time>
      </trkpt>
      <trkpt lat="43.84743" lon="1.89003">
        <ele>182</ele>
        <time>2013-10-27T08:42:37.800Z</time>
      </trkpt>
      <trkpt lat="43.84739" lon="1.89007">
        <ele>182.6499968</ele>
        <time>2013-10-27T08:42:40.800Z</time>
      </trkpt>
      <trkpt lat="43.84734" lon="1.89012">
        <ele>183</ele>
        <time>2013-10-27T08:42:43.800Z</time>
      </trkpt>
      <trkpt lat="43.84726" lon="1.8902">
        <ele>183</ele>
        <time>2013-10-27T08:42:48.800Z</time>
      </trkpt>
      <trkpt lat="43.84718" lon="1.89028">
        <ele>183</ele>
        <time>2013-10-27T08:42:53.800Z</time>
      </trkpt>
      <trkpt lat="43.84711" lon="1.89037">
        <ele>183</ele>
        <time>2013-10-27T08:42:58.800Z</time>
      </trkpt>
      <trkpt lat="43.84704" lon="1.89046">
        <ele>184</ele>
        <time>2013-10-27T08:43:03.800Z</time>
      </trkpt>
      <trkpt lat="43.84696" lon="1.89055">
        <ele>184</ele>
        <time>2013-10-27T08:43:08.800Z</time>
      </trkpt>
      <trkpt lat="43.84688" lon="1.89066">
        <ele>184</ele>
        <time>2013-10-27T08:43:14.800Z</time>
      </trkpt>
      <trkpt lat="43.84682" lon="1.89074">
        <ele>184</ele>
        <time>2013-10-27T08:43:18.800Z</time>
      </trkpt>
      <trkpt lat="43.84676" lon="1.89081">
        <ele>183</ele>
        <time>2013-10-27T08:43:22.700Z</time>
      </trkpt>
      <trkpt lat="43.8467" lon="1.89088">
        <ele>183</ele>
        <time>2013-10-27T08:43:26.700Z</time>
      </trkpt>
      <trkpt lat="43.84665" lon="1.89095">
        <ele>183</ele>
        <time>2013-10-27T08:43:30.700Z</time>
      </trkpt>
      <trkpt lat="43.84659" lon="1.89102">
        <ele>183</ele>
        <time>2013-10-27T08:43:34.700Z</time>
      </trkpt>
      <trkpt lat="43.84654" lon="1.89107">
        <ele>183</ele>
        <time>2013-10-27T08:43:37.700Z</time>
      </trkpt>
      <trkpt lat="43.84649" lon="1.89112">
        <ele>183.5500032</ele>
        <time>2013-10-27T08:43:40.700Z</time>
      </trkpt>
      <trkpt lat="43.8464" lon="1.89122">
        <ele>184</ele>
        <time>2013-10-27T08:43:46.700Z</time>
      </trkpt>
      <trkpt lat="43.84635" lon="1.89128">
        <ele>184</ele>
        <time>2013-10-27T08:43:50.700Z</time>
      </trkpt>
      <trkpt lat="43.84627" lon="1.89135">
        <ele>184</ele>
        <time>2013-10-27T08:43:55.650Z</time>
      </trkpt>
      <trkpt lat="43.84618" lon="1.89143">
        <ele>183.4499968</ele>
        <time>2013-10-27T08:44:00.700Z</time>
      </trkpt>
      <trkpt lat="43.8461" lon="1.89149">
        <ele>183</ele>
        <time>2013-10-27T08:44:05.680Z</time>
      </trkpt>
      <trkpt lat="43.84602" lon="1.89157">
        <ele>182.4499968</ele>
        <time>2013-10-27T08:44:10.700Z</time>
      </trkpt>
      <trkpt lat="43.84593" lon="1.89164">
        <ele>182</ele>
        <time>2013-10-27T08:44:15.700Z</time>
      </trkpt>
      <trkpt lat="43.84587" lon="1.89169">
        <ele>182</ele>
        <time>2013-10-27T08:44:19.700Z</time>
      </trkpt>
      <trkpt lat="43.84579" lon="1.89176">
        <ele>181</ele>
        <time>2013-10-27T08:44:24.700Z</time>
      </trkpt>
      <trkpt lat="43.84572" lon="1.89182">
        <ele>181</ele>
        <time>2013-10-27T08:44:28.700Z</time>
      </trkpt>
      <trkpt lat="43.84565" lon="1.8919">
        <ele>181</ele>
        <time>2013-10-27T08:44:33.800Z</time>
      </trkpt>
      <trkpt lat="43.84558" lon="1.89198">
        <ele>181</ele>
        <time>2013-10-27T08:44:38.800Z</time>
      </trkpt>
      <trkpt lat="43.84552" lon="1.89205">
        <ele>181</ele>
        <time>2013-10-27T08:44:42.800Z</time>
      </trkpt>
      <trkpt lat="43.84545" lon="1.89213">
        <ele>181</ele>
        <time>2013-10-27T08:44:47.800Z</time>
      </trkpt>
      <trkpt lat="43.84536" lon="1.89221">
        <ele>181</ele>
        <time>2013-10-27T08:44:52.800Z</time>
      </trkpt>
      <trkpt lat="43.84529" lon="1.89228">
        <ele>181</ele>
        <time>2013-10-27T08:44:57.800Z</time>
      </trkpt>
      <trkpt lat="43.8452" lon="1.89234">
        <ele>181</ele>
        <time>2013-10-27T08:45:02.800Z</time>
      </trkpt>
      <trkpt lat="43.84511" lon="1.8924">
        <ele>181</ele>
        <time>2013-10-27T08:45:07.800Z</time>
      </trkpt>
      <trkpt lat="43.84503" lon="1.89244">
        <ele>181</ele>
        <time>2013-10-27T08:45:11.800Z</time>
      </trkpt>
      <trkpt lat="43.84496" lon="1.89247">
        <ele>181</ele>
        <time>2013-10-27T08:45:15.800Z</time>
      </trkpt>
      <trkpt lat="43.84486" lon="1.89252">
        <ele>181</ele>
        <time>2013-10-27T08:45:21.700Z</time>
      </trkpt>
      <trkpt lat="43.84476" lon="1.89257">
        <ele>181</ele>
        <time>2013-10-27T08:45:27.700Z</time>
      </trkpt>
      <trkpt lat="43.84468" lon="1.8926">
        <ele>181</ele>
        <time>2013-10-27T08:45:31.700Z</time>
      </trkpt>
      <trkpt lat="43.8446" lon="1.89263">
        <ele>181</ele>
        <time>2013-10-27T08:45:35.700Z</time>
      </trkpt>
      <trkpt lat="43.84453" lon="1.89265">
        <ele>181</ele>
        <time>2013-10-27T08:45:39.700Z</time>
      </trkpt>
      <trkpt lat="43.84446" lon="1.89268">
        <ele>181</ele>
        <time>2013-10-27T08:45:43.700Z</time>
      </trkpt>
      <trkpt lat="43.84438" lon="1.89272">
        <ele>181</ele>
        <time>2013-10-27T08:45:47.700Z</time>
      </trkpt>
      <trkpt lat="43.84432" lon="1.89276">
        <ele>181</ele>
        <time>2013-10-27T08:45:51.800Z</time>
      </trkpt>
      <trkpt lat="43.84425" lon="1.89281">
        <ele>181</ele>
        <time>2013-10-27T08:45:55.700Z</time>
      </trkpt>
      <trkpt lat="43.8442" lon="1.89284">
        <ele>181</ele>
        <time>2013-10-27T08:45:58.700Z</time>
      </trkpt>
      <trkpt lat="43.84414" lon="1.89289">
        <ele>181</ele>
        <time>2013-10-27T08:46:02.700Z</time>
      </trkpt>
      <trkpt lat="43.84407" lon="1.89294">
        <ele>181</ele>
        <time>2013-10-27T08:46:06.700Z</time>
      </trkpt>
      <trkpt lat="43.84401" lon="1.89302">
        <ele>181.52884923077</ele>
        <time>2013-10-27T08:46:10.700Z</time>
      </trkpt>
      <trkpt lat="43.84394" lon="1.89311">
        <ele>182</ele>
        <time>2013-10-27T08:46:15.700Z</time>
      </trkpt>
      <trkpt lat="43.84388" lon="1.89318">
        <ele>182</ele>
        <time>2013-10-27T08:46:19.700Z</time>
      </trkpt>
      <trkpt lat="43.84383" lon="1.89326">
        <ele>182</ele>
        <time>2013-10-27T08:46:23.700Z</time>
      </trkpt>
      <trkpt lat="43.84378" lon="1.89333">
        <ele>182</ele>
        <time>2013-10-27T08:46:27.700Z</time>
      </trkpt>
      <trkpt lat="43.84373" lon="1.8934">
        <ele>182</ele>
        <time>2013-10-27T08:46:31.800Z</time>
      </trkpt>
      <trkpt lat="43.84368" lon="1.89348">
        <ele>182</ele>
        <time>2013-10-27T08:46:35.800Z</time>
      </trkpt>
      <trkpt lat="43.84363" lon="1.89355">
        <ele>182</ele>
        <time>2013-10-27T08:46:39.800Z</time>
      </trkpt>
      <trkpt lat="43.84358" lon="1.89361">
        <ele>183</ele>
        <time>2013-10-27T08:46:42.780Z</time>
      </trkpt>
      <trkpt lat="43.84354" lon="1.89366">
        <ele>183</ele>
        <time>2013-10-27T08:46:45.650Z</time>
      </trkpt>
      <trkpt lat="43.84349" lon="1.89374">
        <ele>183</ele>
        <time>2013-10-27T08:46:49.700Z</time>
      </trkpt>
      <trkpt lat="43.84345" lon="1.8938">
        <ele>183</ele>
        <time>2013-10-27T08:46:52.700Z</time>
      </trkpt>
      <trkpt lat="43.84339" lon="1.89388">
        <ele>183</ele>
        <time>2013-10-27T08:46:56.700Z</time>
      </trkpt>
      <trkpt lat="43.84334" lon="1.89396">
        <ele>183.4899968</ele>
        <time>2013-10-27T08:47:00.640Z</time>
      </trkpt>
      <trkpt lat="43.84329" lon="1.89405">
        <ele>184</ele>
        <time>2013-10-27T08:47:04.700Z</time>
      </trkpt>
      <trkpt lat="43.84324" lon="1.89413">
        <ele>185</ele>
        <time>2013-10-27T08:47:08.700Z</time>
      </trkpt>
      <trkpt lat="43.84321" lon="1.89421">
        <ele>185</ele>
        <time>2013-10-27T08:47:12.700Z</time>
      </trkpt>
      <trkpt lat="43.84317" lon="1.89428">
        <ele>185</ele>
        <time>2013-10-27T08:47:16.700Z</time>
      </trkpt>
      <trkpt lat="43.84313" lon="1.89436">
        <ele>186.2999936</ele>
        <time>2013-10-27T08:47:20.800Z</time>
      </trkpt>
      <trkpt lat="43.84308" lon="1.89442">
        <ele>187</ele>
        <time>2013-10-27T08:47:24.800Z</time>
      </trkpt>
      <trkpt lat="43.84304" lon="1.89448">
        <ele>187</ele>
        <time>2013-10-27T08:47:27.780Z</time>
      </trkpt>
      <trkpt lat="43.843" lon="1.89453">
        <ele>187</ele>
        <time>2013-10-27T08:47:30.800Z</time>
      </trkpt>
      <trkpt lat="43.84295" lon="1.8946">
        <ele>187</ele>
        <time>2013-10-27T08:47:34.800Z</time>
      </trkpt>
      <trkpt lat="43.84289" lon="1.89469">
        <ele>187</ele>
        <time>2013-10-27T08:47:39.800Z</time>
      </trkpt>
      <trkpt lat="43.84282" lon="1.89478">
        <ele>187</ele>
        <time>2013-10-27T08:47:44.780Z</time>
      </trkpt>
      <trkpt lat="43.84274" lon="1.89485">
        <ele>187</ele>
        <time>2013-10-27T08:47:49.800Z</time>
      </trkpt>
      <trkpt lat="43.84267" lon="1.89492">
        <ele>187</ele>
        <time>2013-10-27T08:47:54.800Z</time>
      </trkpt>
      <trkpt lat="43.84258" lon="1.89498">
        <ele>187</ele>
        <time>2013-10-27T08:47:59.800Z</time>
      </trkpt>
      <trkpt lat="43.84248" lon="1.89503">
        <ele>187</ele>
        <time>2013-10-27T08:48:05.800Z</time>
      </trkpt>
      <trkpt lat="43.84237" lon="1.89508">
        <ele>187</ele>
        <time>2013-10-27T08:48:11.700Z</time>
      </trkpt>
      <trkpt lat="43.84228" lon="1.89511">
        <ele>187</ele>
        <time>2013-10-27T08:48:16.700Z</time>
      </trkpt>
      <trkpt lat="43.84217" lon="1.89514">
        <ele>187</ele>
        <time>2013-10-27T08:48:22.700Z</time>
      </trkpt>
      <trkpt lat="43.84208" lon="1.89516">
        <ele>187</ele>
        <time>2013-10-27T08:48:27.650Z</time>
      </trkpt>
      <trkpt lat="43.84198" lon="1.89518">
        <ele>187</ele>
        <time>2013-10-27T08:48:32.700Z</time>
      </trkpt>
      <trkpt lat="43.84189" lon="1.8952">
        <ele>187</ele>
        <time>2013-10-27T08:48:37.700Z</time>
      </trkpt>
      <trkpt lat="43.84179" lon="1.89522">
        <ele>188</ele>
        <time>2013-10-27T08:48:42.700Z</time>
      </trkpt>
      <trkpt lat="43.84169" lon="1.89526">
        <ele>188</ele>
        <time>2013-10-27T08:48:47.800Z</time>
      </trkpt>
      <trkpt lat="43.8416" lon="1.89531">
        <ele>188</ele>
        <time>2013-10-27T08:48:52.800Z</time>
      </trkpt>
      <trkpt lat="43.84155" lon="1.89533">
        <ele>188</ele>
        <time>2013-10-27T08:48:55.800Z</time>
      </trkpt>
      <trkpt lat="43.84148" lon="1.89536">
        <ele>188</ele>
        <time>2013-10-27T08:48:59.800Z</time>
      </trkpt>
      <trkpt lat="43.84139" lon="1.8954">
        <ele>188</ele>
        <time>2013-10-27T08:49:04.800Z</time>
      </trkpt>
      <trkpt lat="43.8413" lon="1.89543">
        <ele>188</ele>
        <time>2013-10-27T08:49:09.800Z</time>
      </trkpt>
      <trkpt lat="43.84121" lon="1.89545">
        <ele>188</ele>
        <time>2013-10-27T08:49:14.800Z</time>
      </trkpt>
      <trkpt lat="43.84112" lon="1.89548">
        <ele>188</ele>
        <time>2013-10-27T08:49:19.700Z</time>
      </trkpt>
      <trkpt lat="43.84103" lon="1.8955">
        <ele>188</ele>
        <time>2013-10-27T08:49:24.700Z</time>
      </trkpt>
      <trkpt lat="43.84094" lon="1.89551">
        <ele>188</ele>
        <time>2013-10-27T08:49:29.700Z</time>
      </trkpt>
      <trkpt lat="43.84089" lon="1.89552">
        <ele>188</ele>
        <time>2013-10-27T08:49:32.700Z</time>
      </trkpt>
      <trkpt lat="43.84082" lon="1.89552">
        <ele>188</ele>
        <time>2013-10-27T08:49:36.700Z</time>
      </trkpt>
      <trkpt lat="43.84072" lon="1.89552">
        <ele>189</ele>
        <time>2013-10-27T08:49:41.700Z</time>
      </trkpt>
      <trkpt lat="43.84062" lon="1.89553">
        <ele>189</ele>
        <time>2013-10-27T08:49:47.700Z</time>
      </trkpt>
      <trkpt lat="43.84053" lon="1.89554">
        <ele>189</ele>
        <time>2013-10-27T08:49:52.650Z</time>
      </trkpt>
      <trkpt lat="43.84044" lon="1.89557">
        <ele>189</ele>
        <time>2013-10-27T08:49:57.700Z</time>
      </trkpt>
      <trkpt lat="43.84034" lon="1.8956">
        <ele>189</ele>
        <time>2013-10-27T08:50:02.700Z</time>
      </trkpt>
      <trkpt lat="43.84025" lon="1.89566">
        <ele>189</ele>
        <time>2013-10-27T08:50:07.700Z</time>
      </trkpt>
      <trkpt lat="43.84017" lon="1.89571">
        <ele>189</ele>
        <time>2013-10-27T08:50:12.800Z</time>
      </trkpt>
      <trkpt lat="43.84009" lon="1.89576">
        <ele>189</ele>
        <time>2013-10-27T08:50:16.800Z</time>
      </trkpt>
      <trkpt lat="43.84001" lon="1.89583">
        <ele>190</ele>
        <time>2013-10-27T08:50:21.780Z</time>
      </trkpt>
      <trkpt lat="43.83994" lon="1.8959">
        <ele>190</ele>
        <time>2013-10-27T08:50:26.750Z</time>
      </trkpt>
      <trkpt lat="43.83989" lon="1.89594">
        <ele>190</ele>
        <time>2013-10-27T08:50:29.800Z</time>
      </trkpt>
      <trkpt lat="43.83984" lon="1.89597">
        <ele>191</ele>
        <time>2013-10-27T08:50:32.800Z</time>
      </trkpt>
      <trkpt lat="43.83978" lon="1.89601">
        <ele>191</ele>
        <time>2013-10-27T08:50:35.800Z</time>
      </trkpt>
      <trkpt lat="43.83973" lon="1.89605">
        <ele>191</ele>
        <time>2013-10-27T08:50:38.800Z</time>
      </trkpt>
      <trkpt lat="43.83968" lon="1.89608">
        <ele>191</ele>
        <time>2013-10-27T08:50:41.800Z</time>
      </trkpt>
      <trkpt lat="43.83963" lon="1.89612">
        <ele>191</ele>
        <time>2013-10-27T08:50:44.700Z</time>
      </trkpt>
      <trkpt lat="43.8396" lon="1.89614">
        <ele>191</ele>
        <time>2013-10-27T08:50:46.700Z</time>
      </trkpt>
      <trkpt lat="43.83955" lon="1.89618">
        <ele>191</ele>
        <time>2013-10-27T08:50:49.700Z</time>
      </trkpt>
      <trkpt lat="43.8395" lon="1.89622">
        <ele>191</ele>
        <time>2013-10-27T08:50:52.700Z</time>
      </trkpt>
      <trkpt lat="43.83944" lon="1.89626">
        <ele>191</ele>
        <time>2013-10-27T08:50:55.700Z</time>
      </trkpt>
      <trkpt lat="43.83939" lon="1.8963">
        <ele>191</ele>
        <time>2013-10-27T08:50:58.700Z</time>
      </trkpt>
      <trkpt lat="43.83935" lon="1.89638">
        <ele>191</ele>
        <time>2013-10-27T08:51:02.700Z</time>
      </trkpt>
      <trkpt lat="43.83933" lon="1.89646">
        <ele>191</ele>
        <time>2013-10-27T08:51:05.700Z</time>
      </trkpt>
      <trkpt lat="43.83933" lon="1.89659">
        <ele>191</ele>
        <time>2013-10-27T08:51:10.700Z</time>
      </trkpt>
      <trkpt lat="43.83931" lon="1.89669">
        <ele>191</ele>
        <time>2013-10-27T08:51:14.700Z</time>
      </trkpt>
      <trkpt lat="43.8393" lon="1.8968">
        <ele>191</ele>
        <time>2013-10-27T08:51:18.800Z</time>
      </trkpt>
      <trkpt lat="43.83928" lon="1.89692">
        <ele>191</ele>
        <time>2013-10-27T08:51:22.780Z</time>
      </trkpt>
      <trkpt lat="43.83926" lon="1.89702">
        <ele>191</ele>
        <time>2013-10-27T08:51:26.800Z</time>
      </trkpt>
      <trkpt lat="43.83923" lon="1.89709">
        <ele>191</ele>
        <time>2013-10-27T08:51:29.800Z</time>
      </trkpt>
      <trkpt lat="43.83921" lon="1.89716">
        <ele>192</ele>
        <time>2013-10-27T08:51:32.800Z</time>
      </trkpt>
      <trkpt lat="43.83918" lon="1.89728">
        <ele>192</ele>
        <time>2013-10-27T08:51:37.800Z</time>
      </trkpt>
      <trkpt lat="43.83916" lon="1.89735">
        <ele>192</ele>
        <time>2013-10-27T08:51:40.800Z</time>
      </trkpt>
      <trkpt lat="43.83914" lon="1.89743">
        <ele>192</ele>
        <time>2013-10-27T08:51:43.800Z</time>
      </trkpt>
      <trkpt lat="43.83911" lon="1.89751">
        <ele>192</ele>
        <time>2013-10-27T08:51:46.800Z</time>
      </trkpt>
      <trkpt lat="43.83909" lon="1.89758">
        <ele>192</ele>
        <time>2013-10-27T08:51:49.760Z</time>
      </trkpt>
      <trkpt lat="43.83907" lon="1.89767">
        <ele>192</ele>
        <time>2013-10-27T08:51:53.800Z</time>
      </trkpt>
      <trkpt lat="43.83904" lon="1.89777">
        <ele>192</ele>
        <time>2013-10-27T08:51:57.800Z</time>
      </trkpt>
      <trkpt lat="43.83901" lon="1.8979">
        <ele>191</ele>
        <time>2013-10-27T08:52:03.800Z</time>
      </trkpt>
      <trkpt lat="43.83899" lon="1.898">
        <ele>191</ele>
        <time>2013-10-27T08:52:07.800Z</time>
      </trkpt>
      <trkpt lat="43.83895" lon="1.89811">
        <ele>191</ele>
        <time>2013-10-27T08:52:12.700Z</time>
      </trkpt>
      <trkpt lat="43.83892" lon="1.89821">
        <ele>191</ele>
        <time>2013-10-27T08:52:16.700Z</time>
      </trkpt>
      <trkpt lat="43.83887" lon="1.89833">
        <ele>191</ele>
        <time>2013-10-27T08:52:21.700Z</time>
      </trkpt>
      <trkpt lat="43.83885" lon="1.89843">
        <ele>191</ele>
        <time>2013-10-27T08:52:25.650Z</time>
      </trkpt>
      <trkpt lat="43.83883" lon="1.89852">
        <ele>191</ele>
        <time>2013-10-27T08:52:29.700Z</time>
      </trkpt>
      <trkpt lat="43.83881" lon="1.89862">
        <ele>192</ele>
        <time>2013-10-27T08:52:33.700Z</time>
      </trkpt>
      <trkpt lat="43.83879" lon="1.89872">
        <ele>192</ele>
        <time>2013-10-27T08:52:37.700Z</time>
      </trkpt>
      <trkpt lat="43.83877" lon="1.89881">
        <ele>191</ele>
        <time>2013-10-27T08:52:41.680Z</time>
      </trkpt>
      <trkpt lat="43.83875" lon="1.89891">
        <ele>191</ele>
        <time>2013-10-27T08:52:45.700Z</time>
      </trkpt>
      <trkpt lat="43.83873" lon="1.89902">
        <ele>191</ele>
        <time>2013-10-27T08:52:50.700Z</time>
      </trkpt>
      <trkpt lat="43.8387" lon="1.89914">
        <ele>191</ele>
        <time>2013-10-27T08:52:55.700Z</time>
      </trkpt>
      <trkpt lat="43.83868" lon="1.89923">
        <ele>191</ele>
        <time>2013-10-27T08:52:59.650Z</time>
      </trkpt>
      <trkpt lat="43.83866" lon="1.8993">
        <ele>191</ele>
        <time>2013-10-27T08:53:02.700Z</time>
      </trkpt>
      <trkpt lat="43.83863" lon="1.89943">
        <ele>191</ele>
        <time>2013-10-27T08:53:07.700Z</time>
      </trkpt>
      <trkpt lat="43.83861" lon="1.89952">
        <ele>192</ele>
        <time>2013-10-27T08:53:11.700Z</time>
      </trkpt>
      <trkpt lat="43.83856" lon="1.89966">
        <ele>192</ele>
        <time>2013-10-27T08:53:17.800Z</time>
      </trkpt>
      <trkpt lat="43.83855" lon="1.89976">
        <ele>192</ele>
        <time>2013-10-27T08:53:21.800Z</time>
      </trkpt>
      <trkpt lat="43.83852" lon="1.89987">
        <ele>192</ele>
        <time>2013-10-27T08:53:25.800Z</time>
      </trkpt>
      <trkpt lat="43.8385" lon="1.89996">
        <ele>192</ele>
        <time>2013-10-27T08:53:29.800Z</time>
      </trkpt>
      <trkpt lat="43.83849" lon="1.90007">
        <ele>192</ele>
        <time>2013-10-27T08:53:33.750Z</time>
      </trkpt>
      <trkpt lat="43.83847" lon="1.90016">
        <ele>192</ele>
        <time>2013-10-27T08:53:37.800Z</time>
      </trkpt>
      <trkpt lat="43.83844" lon="1.90026">
        <ele>191</ele>
        <time>2013-10-27T08:53:41.800Z</time>
      </trkpt>
      <trkpt lat="43.83843" lon="1.90034">
        <ele>191</ele>
        <time>2013-10-27T08:53:44.800Z</time>
      </trkpt>
      <trkpt lat="43.83841" lon="1.90041">
        <ele>191</ele>
        <time>2013-10-27T08:53:47.660Z</time>
      </trkpt>
      <trkpt lat="43.8384" lon="1.90049">
        <ele>191</ele>
        <time>2013-10-27T08:53:50.650Z</time>
      </trkpt>
      <trkpt lat="43.83838" lon="1.90056">
        <ele>191</ele>
        <time>2013-10-27T08:53:53.700Z</time>
      </trkpt>
      <trkpt lat="43.83837" lon="1.90064">
        <ele>191</ele>
        <time>2013-10-27T08:53:56.700Z</time>
      </trkpt>
      <trkpt lat="43.83836" lon="1.90071">
        <ele>191</ele>
        <time>2013-10-27T08:53:59.700Z</time>
      </trkpt>
      <trkpt lat="43.83835" lon="1.90079">
        <ele>192</ele>
        <time>2013-10-27T08:54:02.700Z</time>
      </trkpt>
      <trkpt lat="43.83833" lon="1.90086">
        <ele>192</ele>
        <time>2013-10-27T08:54:05.700Z</time>
      </trkpt>
      <trkpt lat="43.83832" lon="1.90094">
        <ele>192</ele>
        <time>2013-10-27T08:54:08.800Z</time>
      </trkpt>
      <trkpt lat="43.8383" lon="1.90101">
        <ele>193</ele>
        <time>2013-10-27T08:54:11.800Z</time>
      </trkpt>
      <trkpt lat="43.83827" lon="1.90111">
        <ele>193</ele>
        <time>2013-10-27T08:54:15.800Z</time>
      </trkpt>
      <trkpt lat="43.83824" lon="1.9012">
        <ele>193</ele>
        <time>2013-10-27T08:54:19.800Z</time>
      </trkpt>
      <trkpt lat="43.8382" lon="1.90131">
        <ele>193</ele>
        <time>2013-10-27T08:54:23.800Z</time>
      </trkpt>
      <trkpt lat="43.83817" lon="1.9014">
        <ele>193</ele>
        <time>2013-10-27T08:54:27.800Z</time>
      </trkpt>
      <trkpt lat="43.83814" lon="1.90149">
        <ele>192</ele>
        <time>2013-10-27T08:54:31.800Z</time>
      </trkpt>
      <trkpt lat="43.83811" lon="1.90158">
        <ele>192</ele>
        <time>2013-10-27T08:54:35.800Z</time>
      </trkpt>
      <trkpt lat="43.83807" lon="1.90168">
        <ele>192</ele>
        <time>2013-10-27T08:54:39.800Z</time>
      </trkpt>
      <trkpt lat="43.83803" lon="1.90176">
        <ele>193</ele>
        <time>2013-10-27T08:54:43.800Z</time>
      </trkpt>
      <trkpt lat="43.83799" lon="1.90185">
        <ele>193</ele>
        <time>2013-10-27T08:54:47.800Z</time>
      </trkpt>
      <trkpt lat="43.83796" lon="1.90194">
        <ele>193</ele>
        <time>2013-10-27T08:54:51.800Z</time>
      </trkpt>
      <trkpt lat="43.83792" lon="1.90203">
        <ele>193</ele>
        <time>2013-10-27T08:54:55.800Z</time>
      </trkpt>
      <trkpt lat="43.83788" lon="1.90211">
        <ele>193</ele>
        <time>2013-10-27T08:54:59.680Z</time>
      </trkpt>
      <trkpt lat="43.83785" lon="1.9022">
        <ele>193</ele>
        <time>2013-10-27T08:55:03.700Z</time>
      </trkpt>
      <trkpt lat="43.83781" lon="1.90229">
        <ele>193</ele>
        <time>2013-10-27T08:55:07.700Z</time>
      </trkpt>
      <trkpt lat="43.83778" lon="1.90237">
        <ele>193</ele>
        <time>2013-10-27T08:55:10.700Z</time>
      </trkpt>
      <trkpt lat="43.83775" lon="1.90246">
        <ele>193</ele>
        <time>2013-10-27T08:55:14.700Z</time>
      </trkpt>
      <trkpt lat="43.83771" lon="1.90256">
        <ele>193</ele>
        <time>2013-10-27T08:55:18.700Z</time>
      </trkpt>
      <trkpt lat="43.83768" lon="1.90262">
        <ele>194</ele>
        <time>2013-10-27T08:55:21.700Z</time>
      </trkpt>
      <trkpt lat="43.83764" lon="1.90268">
        <ele>194</ele>
        <time>2013-10-27T08:55:24.700Z</time>
      </trkpt>
      <trkpt lat="43.8376" lon="1.90277">
        <ele>194</ele>
        <time>2013-10-27T08:55:28.680Z</time>
      </trkpt>
      <trkpt lat="43.83756" lon="1.90286">
        <ele>194</ele>
        <time>2013-10-27T08:55:32.650Z</time>
      </trkpt>
      <trkpt lat="43.83753" lon="1.90295">
        <ele>194</ele>
        <time>2013-10-27T08:55:36.700Z</time>
      </trkpt>
      <trkpt lat="43.83749" lon="1.90304">
        <ele>194</ele>
        <time>2013-10-27T08:55:40.700Z</time>
      </trkpt>
      <trkpt lat="43.83746" lon="1.90313">
        <ele>194</ele>
        <time>2013-10-27T08:55:44.680Z</time>
      </trkpt>
      <trkpt lat="43.83742" lon="1.90323">
        <ele>194</ele>
        <time>2013-10-27T08:55:48.700Z</time>
      </trkpt>
      <trkpt lat="43.83738" lon="1.90333">
        <ele>195</ele>
        <time>2013-10-27T08:55:52.700Z</time>
      </trkpt>
      <trkpt lat="43.83735" lon="1.90342">
        <ele>195</ele>
        <time>2013-10-27T08:55:56.700Z</time>
      </trkpt>
      <trkpt lat="43.83732" lon="1.90352">
        <ele>195</ele>
        <time>2013-10-27T08:56:00.700Z</time>
      </trkpt>
      <trkpt lat="43.83729" lon="1.90359">
        <ele>195</ele>
        <time>2013-10-27T08:56:03.700Z</time>
      </trkpt>
      <trkpt lat="43.83726" lon="1.90369">
        <ele>195</ele>
        <time>2013-10-27T08:56:07.800Z</time>
      </trkpt>
      <trkpt lat="43.83723" lon="1.90376">
        <ele>195</ele>
        <time>2013-10-27T08:56:10.800Z</time>
      </trkpt>
      <trkpt lat="43.8372" lon="1.90385">
        <ele>195</ele>
        <time>2013-10-27T08:56:14.800Z</time>
      </trkpt>
      <trkpt lat="43.83717" lon="1.90393">
        <ele>195</ele>
        <time>2013-10-27T08:56:18.800Z</time>
      </trkpt>
      <trkpt lat="43.83714" lon="1.90402">
        <ele>194</ele>
        <time>2013-10-27T08:56:22.800Z</time>
      </trkpt>
      <trkpt lat="43.83712" lon="1.90411">
        <ele>194</ele>
        <time>2013-10-27T08:56:26.800Z</time>
      </trkpt>
      <trkpt lat="43.83708" lon="1.90419">
        <ele>194.6300032</ele>
        <time>2013-10-27T08:56:30.780Z</time>
      </trkpt>
      <trkpt lat="43.83705" lon="1.90428">
        <ele>195</ele>
        <time>2013-10-27T08:56:34.800Z</time>
      </trkpt>
      <trkpt lat="43.83703" lon="1.90437">
        <ele>195</ele>
        <time>2013-10-27T08:56:38.800Z</time>
      </trkpt>
      <trkpt lat="43.83701" lon="1.90447">
        <ele>195</ele>
        <time>2013-10-27T08:56:42.800Z</time>
      </trkpt>
      <trkpt lat="43.83698" lon="1.90456">
        <ele>195</ele>
        <time>2013-10-27T08:56:46.780Z</time>
      </trkpt>
      <trkpt lat="43.83695" lon="1.90464">
        <ele>195</ele>
        <time>2013-10-27T08:56:50.800Z</time>
      </trkpt>
      <trkpt lat="43.83692" lon="1.90474">
        <ele>195</ele>
        <time>2013-10-27T08:56:54.800Z</time>
      </trkpt>
      <trkpt lat="43.83689" lon="1.90481">
        <ele>195</ele>
        <time>2013-10-27T08:56:57.580Z</time>
      </trkpt>
      <trkpt lat="43.83686" lon="1.90488">
        <ele>195</ele>
        <time>2013-10-27T08:57:00.700Z</time>
      </trkpt>
      <trkpt lat="43.83684" lon="1.90495">
        <ele>195</ele>
        <time>2013-10-27T08:57:03.700Z</time>
      </trkpt>
      <trkpt lat="43.83681" lon="1.90507">
        <ele>195</ele>
        <time>2013-10-27T08:57:08.700Z</time>
      </trkpt>
      <trkpt lat="43.83678" lon="1.90516">
        <ele>195</ele>
        <time>2013-10-27T08:57:12.700Z</time>
      </trkpt>
      <trkpt lat="43.83674" lon="1.90525">
        <ele>195</ele>
        <time>2013-10-27T08:57:16.700Z</time>
      </trkpt>
      <trkpt lat="43.83671" lon="1.90535">
        <ele>195</ele>
        <time>2013-10-27T08:57:20.700Z</time>
      </trkpt>
      <trkpt lat="43.83667" lon="1.90545">
        <ele>195</ele>
        <time>2013-10-27T08:57:24.700Z</time>
      </trkpt>
      <trkpt lat="43.83664" lon="1.90554">
        <ele>195</ele>
        <time>2013-10-27T08:57:28.700Z</time>
      </trkpt>
      <trkpt lat="43.83661" lon="1.90563">
        <ele>195</ele>
        <time>2013-10-27T08:57:32.680Z</time>
      </trkpt>
      <trkpt lat="43.83659" lon="1.90573">
        <ele>195</ele>
        <time>2013-10-27T08:57:37.700Z</time>
      </trkpt>
      <trkpt lat="43.83656" lon="1.90582">
        <ele>195</ele>
        <time>2013-10-27T08:57:41.700Z</time>
      </trkpt>
      <trkpt lat="43.83651" lon="1.90591">
        <ele>195</ele>
        <time>2013-10-27T08:57:45.700Z</time>
      </trkpt>
      <trkpt lat="43.83647" lon="1.90601">
        <ele>195</ele>
        <time>2013-10-27T08:57:49.800Z</time>
      </trkpt>
      <trkpt lat="43.83644" lon="1.9061">
        <ele>195</ele>
        <time>2013-10-27T08:57:53.800Z</time>
      </trkpt>
      <trkpt lat="43.83641" lon="1.90618">
        <ele>195</ele>
        <time>2013-10-27T08:57:56.800Z</time>
      </trkpt>
      <trkpt lat="43.83637" lon="1.90627">
        <ele>196.2999936</ele>
        <time>2013-10-27T08:58:00.800Z</time>
      </trkpt>
      <trkpt lat="43.83634" lon="1.90636">
        <ele>197</ele>
        <time>2013-10-27T08:58:04.800Z</time>
      </trkpt>
      <trkpt lat="43.8363" lon="1.90645">
        <ele>197</ele>
        <time>2013-10-27T08:58:08.700Z</time>
      </trkpt>
      <trkpt lat="43.83626" lon="1.90654">
        <ele>197</ele>
        <time>2013-10-27T08:58:12.700Z</time>
      </trkpt>
      <trkpt lat="43.83622" lon="1.90663">
        <ele>197</ele>
        <time>2013-10-27T08:58:16.700Z</time>
      </trkpt>
      <trkpt lat="43.83618" lon="1.9067">
        <ele>197</ele>
        <time>2013-10-27T08:58:19.700Z</time>
      </trkpt>
      <trkpt lat="43.83613" lon="1.90679">
        <ele>197</ele>
        <time>2013-10-27T08:58:24.700Z</time>
      </trkpt>
      <trkpt lat="43.83607" lon="1.90686">
        <ele>197</ele>
        <time>2013-10-27T08:58:28.700Z</time>
      </trkpt>
      <trkpt lat="43.83603" lon="1.90695">
        <ele>196</ele>
        <time>2013-10-27T08:58:32.700Z</time>
      </trkpt>
      <trkpt lat="43.83598" lon="1.90704">
        <ele>196</ele>
        <time>2013-10-27T08:58:36.700Z</time>
      </trkpt>
      <trkpt lat="43.83594" lon="1.90711">
        <ele>196.55445720224</ele>
        <time>2013-10-27T08:58:40.700Z</time>
      </trkpt>
      <trkpt lat="43.83588" lon="1.9072">
        <ele>197</ele>
        <time>2013-10-27T08:58:44.700Z</time>
      </trkpt>
      <trkpt lat="43.83584" lon="1.90726">
        <ele>197</ele>
        <time>2013-10-27T08:58:47.700Z</time>
      </trkpt>
      <trkpt lat="43.83579" lon="1.90733">
        <ele>198</ele>
        <time>2013-10-27T08:58:51.700Z</time>
      </trkpt>
      <trkpt lat="43.83575" lon="1.90741">
        <ele>198</ele>
        <time>2013-10-27T08:58:55.700Z</time>
      </trkpt>
      <trkpt lat="43.8357" lon="1.90748">
        <ele>198</ele>
        <time>2013-10-27T08:58:59.800Z</time>
      </trkpt>
      <trkpt lat="43.83562" lon="1.90757">
        <ele>198</ele>
        <time>2013-10-27T08:59:04.800Z</time>
      </trkpt>
      <trkpt lat="43.83558" lon="1.90772">
        <ele>198</ele>
        <time>2013-10-27T08:59:10.800Z</time>
      </trkpt>
      <trkpt lat="43.83554" lon="1.90782">
        <ele>198</ele>
        <time>2013-10-27T08:59:15.800Z</time>
      </trkpt>
      <trkpt lat="43.83549" lon="1.90791">
        <ele>198</ele>
        <time>2013-10-27T08:59:19.800Z</time>
      </trkpt>
      <trkpt lat="43.83546" lon="1.90799">
        <ele>198</ele>
        <time>2013-10-27T08:59:23.800Z</time>
      </trkpt>
      <trkpt lat="43.83542" lon="1.90808">
        <ele>198</ele>
        <time>2013-10-27T08:59:27.800Z</time>
      </trkpt>
      <trkpt lat="43.83538" lon="1.90817">
        <ele>198</ele>
        <time>2013-10-27T08:59:31.800Z</time>
      </trkpt>
      <trkpt lat="43.83535" lon="1.90828">
        <ele>198</ele>
        <time>2013-10-27T08:59:36.800Z</time>
      </trkpt>
      <trkpt lat="43.83533" lon="1.90841">
        <ele>199</ele>
        <time>2013-10-27T08:59:42.800Z</time>
      </trkpt>
      <trkpt lat="43.8353" lon="1.90852">
        <ele>199</ele>
        <time>2013-10-27T08:59:47.740Z</time>
      </trkpt>
      <trkpt lat="43.83525" lon="1.90863">
        <ele>199</ele>
        <time>2013-10-27T08:59:52.800Z</time>
      </trkpt>
      <trkpt lat="43.8352" lon="1.90875">
        <ele>199</ele>
        <time>2013-10-27T08:59:57.800Z</time>
      </trkpt>
      <trkpt lat="43.83515" lon="1.90887">
        <ele>199</ele>
        <time>2013-10-27T09:00:02.800Z</time>
      </trkpt>
      <trkpt lat="43.83511" lon="1.90899">
        <ele>199</ele>
        <time>2013-10-27T09:00:07.800Z</time>
      </trkpt>
      <trkpt lat="43.83505" lon="1.90909">
        <ele>199</ele>
        <time>2013-10-27T09:00:12.800Z</time>
      </trkpt>
      <trkpt lat="43.83499" lon="1.90918">
        <ele>199</ele>
        <time>2013-10-27T09:00:16.800Z</time>
      </trkpt>
      <trkpt lat="43.83494" lon="1.90927">
        <ele>199</ele>
        <time>2013-10-27T09:00:21.750Z</time>
      </trkpt>
      <trkpt lat="43.8349" lon="1.90935">
        <ele>199</ele>
        <time>2013-10-27T09:00:25.800Z</time>
      </trkpt>
      <trkpt lat="43.83484" lon="1.90942">
        <ele>199</ele>
        <time>2013-10-27T09:00:29.800Z</time>
      </trkpt>
      <trkpt lat="43.83478" lon="1.90952">
        <ele>199</ele>
        <time>2013-10-27T09:00:34.800Z</time>
      </trkpt>
      <trkpt lat="43.83473" lon="1.9096">
        <ele>199</ele>
        <time>2013-10-27T09:00:38.740Z</time>
      </trkpt>
      <trkpt lat="43.83469" lon="1.90968">
        <ele>200</ele>
        <time>2013-10-27T09:00:42.780Z</time>
      </trkpt>
      <trkpt lat="43.83464" lon="1.90976">
        <ele>200</ele>
        <time>2013-10-27T09:00:46.800Z</time>
      </trkpt>
      <trkpt lat="43.83459" lon="1.90983">
        <ele>200</ele>
        <time>2013-10-27T09:00:50.800Z</time>
      </trkpt>
      <trkpt lat="43.83454" lon="1.90991">
        <ele>200</ele>
        <time>2013-10-27T09:00:54.800Z</time>
      </trkpt>
      <trkpt lat="43.8345" lon="1.90998">
        <ele>200</ele>
        <time>2013-10-27T09:00:58.700Z</time>
      </trkpt>
      <trkpt lat="43.83445" lon="1.91006">
        <ele>200</ele>
        <time>2013-10-27T09:01:02.800Z</time>
      </trkpt>
      <trkpt lat="43.8344" lon="1.91016">
        <ele>200</ele>
        <time>2013-10-27T09:01:07.800Z</time>
      </trkpt>
      <trkpt lat="43.83435" lon="1.91024">
        <ele>200</ele>
        <time>2013-10-27T09:01:11.800Z</time>
      </trkpt>
      <trkpt lat="43.8343" lon="1.91033">
        <ele>200</ele>
        <time>2013-10-27T09:01:15.800Z</time>
      </trkpt>
      <trkpt lat="43.83426" lon="1.91041">
        <ele>200</ele>
        <time>2013-10-27T09:01:19.800Z</time>
      </trkpt>
      <trkpt lat="43.83421" lon="1.91049">
        <ele>201</ele>
        <time>2013-10-27T09:01:23.800Z</time>
      </trkpt>
      <trkpt lat="43.83416" lon="1.91059">
        <ele>201</ele>
        <time>2013-10-27T09:01:28.780Z</time>
      </trkpt>
      <trkpt lat="43.83412" lon="1.91068">
        <ele>201</ele>
        <time>2013-10-27T09:01:32.800Z</time>
      </trkpt>
      <trkpt lat="43.83407" lon="1.91079">
        <ele>201</ele>
        <time>2013-10-27T09:01:37.800Z</time>
      </trkpt>
      <trkpt lat="43.83402" lon="1.91087">
        <ele>201</ele>
        <time>2013-10-27T09:01:41.800Z</time>
      </trkpt>
      <trkpt lat="43.83396" lon="1.91096">
        <ele>201</ele>
        <time>2013-10-27T09:01:45.780Z</time>
      </trkpt>
      <trkpt lat="43.83392" lon="1.91104">
        <ele>201</ele>
        <time>2013-10-27T09:01:49.700Z</time>
      </trkpt>
      <trkpt lat="43.83387" lon="1.91113">
        <ele>201</ele>
        <time>2013-10-27T09:01:53.800Z</time>
      </trkpt>
      <trkpt lat="43.83383" lon="1.91122">
        <ele>201</ele>
        <time>2013-10-27T09:01:57.800Z</time>
      </trkpt>
      <trkpt lat="43.83378" lon="1.91131">
        <ele>201</ele>
        <time>2013-10-27T09:02:01.800Z</time>
      </trkpt>
      <trkpt lat="43.83372" lon="1.91139">
        <ele>201</ele>
        <time>2013-10-27T09:02:05.700Z</time>
      </trkpt>
      <trkpt lat="43.83368" lon="1.91148">
        <ele>201</ele>
        <time>2013-10-27T09:02:09.700Z</time>
      </trkpt>
      <trkpt lat="43.83364" lon="1.91157">
        <ele>201</ele>
        <time>2013-10-27T09:02:13.700Z</time>
      </trkpt>
      <trkpt lat="43.8336" lon="1.91166">
        <ele>201</ele>
        <time>2013-10-27T09:02:17.700Z</time>
      </trkpt>
      <trkpt lat="43.83356" lon="1.91175">
        <ele>201</ele>
        <time>2013-10-27T09:02:21.700Z</time>
      </trkpt>
      <trkpt lat="43.83354" lon="1.91187">
        <ele>201</ele>
        <time>2013-10-27T09:02:27.700Z</time>
      </trkpt>
      <trkpt lat="43.83359" lon="1.91196">
        <ele>201</ele>
        <time>2013-10-27T09:02:31.700Z</time>
      </trkpt>
      <trkpt lat="43.83366" lon="1.91205">
        <ele>201</ele>
        <time>2013-10-27T09:02:36.700Z</time>
      </trkpt>
      <trkpt lat="43.83373" lon="1.91212">
        <ele>201</ele>
        <time>2013-10-27T09:02:41.800Z</time>
      </trkpt>
      <trkpt lat="43.8338" lon="1.9122">
        <ele>201</ele>
        <time>2013-10-27T09:02:46.800Z</time>
      </trkpt>
      <trkpt lat="43.83388" lon="1.91228">
        <ele>201</ele>
        <time>2013-10-27T09:02:51.800Z</time>
      </trkpt>
      <trkpt lat="43.83395" lon="1.91236">
        <ele>201</ele>
        <time>2013-10-27T09:02:56.800Z</time>
      </trkpt>
      <trkpt lat="43.83402" lon="1.91243">
        <ele>201</ele>
        <time>2013-10-27T09:03:00.800Z</time>
      </trkpt>
      <trkpt lat="43.8341" lon="1.91252">
        <ele>201</ele>
        <time>2013-10-27T09:03:06.800Z</time>
      </trkpt>
      <trkpt lat="43.83418" lon="1.91262">
        <ele>201</ele>
        <time>2013-10-27T09:03:12.800Z</time>
      </trkpt>
      <trkpt lat="43.83426" lon="1.91271">
        <ele>201</ele>
        <time>2013-10-27T09:03:17.800Z</time>
      </trkpt>
      <trkpt lat="43.83434" lon="1.91281">
        <ele>201</ele>
        <time>2013-10-27T09:03:23.800Z</time>
      </trkpt>
      <trkpt lat="43.83442" lon="1.91292">
        <ele>201</ele>
        <time>2013-10-27T09:03:29.800Z</time>
      </trkpt>
      <trkpt lat="43.8345" lon="1.91301">
        <ele>201</ele>
        <time>2013-10-27T09:03:34.800Z</time>
      </trkpt>
      <trkpt lat="43.83458" lon="1.9131">
        <ele>201</ele>
        <time>2013-10-27T09:03:40.800Z</time>
      </trkpt>
      <trkpt lat="43.83466" lon="1.91322">
        <ele>201</ele>
        <time>2013-10-27T09:03:46.700Z</time>
      </trkpt>
      <trkpt lat="43.83473" lon="1.91331">
        <ele>201</ele>
        <time>2013-10-27T09:03:51.700Z</time>
      </trkpt>
      <trkpt lat="43.83482" lon="1.91341">
        <ele>201</ele>
        <time>2013-10-27T09:03:57.700Z</time>
      </trkpt>
      <trkpt lat="43.8349" lon="1.9135">
        <ele>201</ele>
        <time>2013-10-27T09:04:02.640Z</time>
      </trkpt>
      <trkpt lat="43.83498" lon="1.91358">
        <ele>201</ele>
        <time>2013-10-27T09:04:07.700Z</time>
      </trkpt>
      <trkpt lat="43.83507" lon="1.91366">
        <ele>201</ele>
        <time>2013-10-27T09:04:13.700Z</time>
      </trkpt>
      <trkpt lat="43.83517" lon="1.91373">
        <ele>201</ele>
        <time>2013-10-27T09:04:19.650Z</time>
      </trkpt>
      <trkpt lat="43.83527" lon="1.91377">
        <ele>201</ele>
        <time>2013-10-27T09:04:25.700Z</time>
      </trkpt>
      <trkpt lat="43.83534" lon="1.9138">
        <ele>201</ele>
        <time>2013-10-27T09:04:30.700Z</time>
      </trkpt>
      <trkpt lat="43.83543" lon="1.91384">
        <ele>201</ele>
        <time>2013-10-27T09:04:35.700Z</time>
      </trkpt>
      <trkpt lat="43.83551" lon="1.91388">
        <ele>201</ele>
        <time>2013-10-27T09:04:40.800Z</time>
      </trkpt>
      <trkpt lat="43.8356" lon="1.91392">
        <ele>201</ele>
        <time>2013-10-27T09:04:45.800Z</time>
      </trkpt>
      <trkpt lat="43.83569" lon="1.91396">
        <ele>201</ele>
        <time>2013-10-27T09:04:50.800Z</time>
      </trkpt>
      <trkpt lat="43.83578" lon="1.914">
        <ele>201</ele>
        <time>2013-10-27T09:04:55.800Z</time>
      </trkpt>
      <trkpt lat="43.83589" lon="1.91406">
        <ele>201</ele>
        <time>2013-10-27T09:05:00.800Z</time>
      </trkpt>
      <trkpt lat="43.83599" lon="1.91413">
        <ele>201</ele>
        <time>2013-10-27T09:05:06.800Z</time>
      </trkpt>
      <trkpt lat="43.83608" lon="1.91422">
        <ele>201</ele>
        <time>2013-10-27T09:05:12.800Z</time>
      </trkpt>
      <trkpt lat="43.83615" lon="1.91431">
        <ele>201</ele>
        <time>2013-10-27T09:05:16.800Z</time>
      </trkpt>
      <trkpt lat="43.83622" lon="1.91441">
        <ele>201</ele>
        <time>2013-10-27T09:05:21.800Z</time>
      </trkpt>
      <trkpt lat="43.83628" lon="1.91452">
        <ele>201</ele>
        <time>2013-10-27T09:05:26.800Z</time>
      </trkpt>
      <trkpt lat="43.83633" lon="1.91461">
        <ele>201</ele>
        <time>2013-10-27T09:05:30.800Z</time>
      </trkpt>
      <trkpt lat="43.83638" lon="1.91471">
        <ele>201</ele>
        <time>2013-10-27T09:05:34.800Z</time>
      </trkpt>
      <trkpt lat="43.83643" lon="1.91484">
        <ele>201</ele>
        <time>2013-10-27T09:05:39.800Z</time>
      </trkpt>
      <trkpt lat="43.83647" lon="1.91492">
        <ele>201</ele>
        <time>2013-10-27T09:05:43.800Z</time>
      </trkpt>
      <trkpt lat="43.83654" lon="1.91504">
        <ele>201</ele>
        <time>2013-10-27T09:05:49.700Z</time>
      </trkpt>
      <trkpt lat="43.83658" lon="1.91513">
        <ele>201</ele>
        <time>2013-10-27T09:05:54.700Z</time>
      </trkpt>
      <trkpt lat="43.83664" lon="1.91523">
        <ele>201</ele>
        <time>2013-10-27T09:05:59.700Z</time>
      </trkpt>
      <trkpt lat="43.83668" lon="1.91535">
        <ele>201</ele>
        <time>2013-10-27T09:06:04.800Z</time>
      </trkpt>
      <trkpt lat="43.83673" lon="1.91543">
        <ele>201</ele>
        <time>2013-10-27T09:06:08.800Z</time>
      </trkpt>
      <trkpt lat="43.83677" lon="1.91552">
        <ele>201</ele>
        <time>2013-10-27T09:06:12.800Z</time>
      </trkpt>
      <trkpt lat="43.83681" lon="1.9156">
        <ele>201</ele>
        <time>2013-10-27T09:06:16.800Z</time>
      </trkpt>
      <trkpt lat="43.83685" lon="1.91569">
        <ele>201</ele>
        <time>2013-10-27T09:06:20.800Z</time>
      </trkpt>
      <trkpt lat="43.83691" lon="1.91582">
        <ele>201</ele>
        <time>2013-10-27T09:06:26.780Z</time>
      </trkpt>
      <trkpt lat="43.83696" lon="1.91594">
        <ele>201</ele>
        <time>2013-10-27T09:06:31.800Z</time>
      </trkpt>
      <trkpt lat="43.83701" lon="1.91608">
        <ele>201</ele>
        <time>2013-10-27T09:06:37.700Z</time>
      </trkpt>
      <trkpt lat="43.83706" lon="1.91622">
        <ele>201</ele>
        <time>2013-10-27T09:06:43.680Z</time>
      </trkpt>
      <trkpt lat="43.8371" lon="1.91637">
        <ele>201</ele>
        <time>2013-10-27T09:06:49.700Z</time>
      </trkpt>
      <trkpt lat="43.83713" lon="1.9165">
        <ele>201</ele>
        <time>2013-10-27T09:06:55.800Z</time>
      </trkpt>
      <trkpt lat="43.83718" lon="1.91664">
        <ele>201</ele>
        <time>2013-10-27T09:07:01.800Z</time>
      </trkpt>
      <trkpt lat="43.83722" lon="1.91678">
        <ele>201</ele>
        <time>2013-10-27T09:07:07.800Z</time>
      </trkpt>
      <trkpt lat="43.83726" lon="1.91691">
        <ele>201</ele>
        <time>2013-10-27T09:07:12.800Z</time>
      </trkpt>
      <trkpt lat="43.83729" lon="1.91701">
        <ele>201</ele>
        <time>2013-10-27T09:07:16.800Z</time>
      </trkpt>
      <trkpt lat="43.83732" lon="1.91711">
        <ele>201</ele>
        <time>2013-10-27T09:07:20.800Z</time>
      </trkpt>
      <trkpt lat="43.83735" lon="1.91722">
        <ele>201</ele>
        <time>2013-10-27T09:07:24.800Z</time>
      </trkpt>
      <trkpt lat="43.83739" lon="1.91736">
        <ele>201</ele>
        <time>2013-10-27T09:07:30.800Z</time>
      </trkpt>
      <trkpt lat="43.83742" lon="1.91749">
        <ele>201</ele>
        <time>2013-10-27T09:07:35.800Z</time>
      </trkpt>
      <trkpt lat="43.83745" lon="1.91761">
        <ele>201</ele>
        <time>2013-10-27T09:07:40.800Z</time>
      </trkpt>
      <trkpt lat="43.83749" lon="1.91773">
        <ele>201</ele>
        <time>2013-10-27T09:07:45.700Z</time>
      </trkpt>
      <trkpt lat="43.83755" lon="1.91784">
        <ele>201</ele>
        <time>2013-10-27T09:07:50.700Z</time>
      </trkpt>
      <trkpt lat="43.83759" lon="1.91797">
        <ele>201</ele>
        <time>2013-10-27T09:07:56.700Z</time>
      </trkpt>
      <trkpt lat="43.83763" lon="1.91807">
        <ele>201</ele>
        <time>2013-10-27T09:08:01.700Z</time>
      </trkpt>
      <trkpt lat="43.83768" lon="1.91821">
        <ele>201</ele>
        <time>2013-10-27T09:08:07.700Z</time>
      </trkpt>
      <trkpt lat="43.83773" lon="1.91834">
        <ele>201</ele>
        <time>2013-10-27T09:08:13.700Z</time>
      </trkpt>
      <trkpt lat="43.83778" lon="1.91847">
        <ele>201</ele>
        <time>2013-10-27T09:08:19.700Z</time>
      </trkpt>
      <trkpt lat="43.83782" lon="1.91856">
        <ele>201</ele>
        <time>2013-10-27T09:08:23.700Z</time>
      </trkpt>
      <trkpt lat="43.83787" lon="1.91867">
        <ele>201</ele>
        <time>2013-10-27T09:08:28.700Z</time>
      </trkpt>
      <trkpt lat="43.83791" lon="1.91877">
        <ele>201</ele>
        <time>2013-10-27T09:08:32.700Z</time>
      </trkpt>
      <trkpt lat="43.83796" lon="1.91887">
        <ele>201</ele>
        <time>2013-10-27T09:08:37.800Z</time>
      </trkpt>
      <trkpt lat="43.838" lon="1.91897">
        <ele>201</ele>
        <time>2013-10-27T09:08:41.800Z</time>
      </trkpt>
      <trkpt lat="43.83803" lon="1.91907">
        <ele>201</ele>
        <time>2013-10-27T09:08:46.800Z</time>
      </trkpt>
      <trkpt lat="43.83807" lon="1.91916">
        <ele>201</ele>
        <time>2013-10-27T09:08:50.800Z</time>
      </trkpt>
      <trkpt lat="43.83811" lon="1.91925">
        <ele>201</ele>
        <time>2013-10-27T09:08:54.800Z</time>
      </trkpt>
      <trkpt lat="43.83814" lon="1.91934">
        <ele>201</ele>
        <time>2013-10-27T09:08:58.800Z</time>
      </trkpt>
      <trkpt lat="43.83818" lon="1.91945">
        <ele>201</ele>
        <time>2013-10-27T09:09:03.780Z</time>
      </trkpt>
      <trkpt lat="43.83823" lon="1.91955">
        <ele>201</ele>
        <time>2013-10-27T09:09:07.800Z</time>
      </trkpt>
      <trkpt lat="43.83827" lon="1.91964">
        <ele>201</ele>
        <time>2013-10-27T09:09:11.800Z</time>
      </trkpt>
      <trkpt lat="43.83832" lon="1.91977">
        <ele>201</ele>
        <time>2013-10-27T09:09:17.800Z</time>
      </trkpt>
      <trkpt lat="43.83838" lon="1.9199">
        <ele>201</ele>
        <time>2013-10-27T09:09:23.800Z</time>
      </trkpt>
      <trkpt lat="43.83843" lon="1.92002">
        <ele>201</ele>
        <time>2013-10-27T09:09:29.800Z</time>
      </trkpt>
      <trkpt lat="43.83848" lon="1.92014">
        <ele>201</ele>
        <time>2013-10-27T09:09:34.800Z</time>
      </trkpt>
      <trkpt lat="43.83854" lon="1.92028">
        <ele>201</ele>
        <time>2013-10-27T09:09:40.800Z</time>
      </trkpt>
      <trkpt lat="43.83859" lon="1.92041">
        <ele>201</ele>
        <time>2013-10-27T09:09:46.700Z</time>
      </trkpt>
      <trkpt lat="43.83863" lon="1.92054">
        <ele>201</ele>
        <time>2013-10-27T09:09:52.760Z</time>
      </trkpt>
      <trkpt lat="43.83868" lon="1.92068">
        <ele>201</ele>
        <time>2013-10-27T09:09:58.800Z</time>
      </trkpt>
      <trkpt lat="43.83875" lon="1.92081">
        <ele>201</ele>
        <time>2013-10-27T09:10:04.780Z</time>
      </trkpt>
      <trkpt lat="43.83881" lon="1.92095">
        <ele>201</ele>
        <time>2013-10-27T09:10:10.800Z</time>
      </trkpt>
      <trkpt lat="43.83888" lon="1.92107">
        <ele>201</ele>
        <time>2013-10-27T09:10:16.750Z</time>
      </trkpt>
      <trkpt lat="43.83892" lon="1.92115">
        <ele>201</ele>
        <time>2013-10-27T09:10:20.800Z</time>
      </trkpt>
      <trkpt lat="43.83898" lon="1.92128">
        <ele>201</ele>
        <time>2013-10-27T09:10:26.800Z</time>
      </trkpt>
      <trkpt lat="43.83904" lon="1.92142">
        <ele>201</ele>
        <time>2013-10-27T09:10:32.800Z</time>
      </trkpt>
      <trkpt lat="43.83909" lon="1.92154">
        <ele>201</ele>
        <time>2013-10-27T09:10:38.700Z</time>
      </trkpt>
      <trkpt lat="43.83916" lon="1.92167">
        <ele>201</ele>
        <time>2013-10-27T09:10:44.700Z</time>
      </trkpt>
      <trkpt lat="43.83923" lon="1.9218">
        <ele>201</ele>
        <time>2013-10-27T09:10:50.630Z</time>
      </trkpt>
      <trkpt lat="43.83929" lon="1.92193">
        <ele>201</ele>
        <time>2013-10-27T09:10:56.700Z</time>
      </trkpt>
      <trkpt lat="43.83935" lon="1.92205">
        <ele>201</ele>
        <time>2013-10-27T09:11:02.700Z</time>
      </trkpt>
      <trkpt lat="43.8394" lon="1.92218">
        <ele>201</ele>
        <time>2013-10-27T09:11:08.700Z</time>
      </trkpt>
      <trkpt lat="43.83943" lon="1.92226">
        <ele>201</ele>
        <time>2013-10-27T09:11:12.700Z</time>
      </trkpt>
      <trkpt lat="43.83948" lon="1.92235">
        <ele>201</ele>
        <time>2013-10-27T09:11:16.700Z</time>
      </trkpt>
      <trkpt lat="43.83952" lon="1.92244">
        <ele>201</ele>
        <time>2013-10-27T09:11:20.620Z</time>
      </trkpt>
      <trkpt lat="43.83956" lon="1.92253">
        <ele>201</ele>
        <time>2013-10-27T09:11:24.640Z</time>
      </trkpt>
      <trkpt lat="43.8396" lon="1.92261">
        <ele>201</ele>
        <time>2013-10-27T09:11:28.700Z</time>
      </trkpt>
      <trkpt lat="43.83965" lon="1.92271">
        <ele>201</ele>
        <time>2013-10-27T09:11:32.700Z</time>
      </trkpt>
      <trkpt lat="43.8397" lon="1.9228">
        <ele>201</ele>
        <time>2013-10-27T09:11:36.680Z</time>
      </trkpt>
      <trkpt lat="43.83974" lon="1.92287">
        <ele>201</ele>
        <time>2013-10-27T09:11:40.700Z</time>
      </trkpt>
      <trkpt lat="43.83978" lon="1.92295">
        <ele>201</ele>
        <time>2013-10-27T09:11:44.800Z</time>
      </trkpt>
      <trkpt lat="43.83983" lon="1.92304">
        <ele>201</ele>
        <time>2013-10-27T09:11:49.800Z</time>
      </trkpt>
      <trkpt lat="43.8399" lon="1.92314">
        <ele>201</ele>
        <time>2013-10-27T09:11:54.800Z</time>
      </trkpt>
      <trkpt lat="43.83992" lon="1.92322">
        <ele>201</ele>
        <time>2013-10-27T09:11:58.600Z</time>
      </trkpt>
    </trkseg>
  </trk>
</gpx>